Data Archive--December, 2002

Date Time Heat Index Current Temp Wind Chill High Temp Low Temp Humidity Dew Point Wind Speed Gust Wind Direction Rain Barometer
12/01/2002 12:00 a 38.7 38.7 38.7 38.9 38.6 65 28.0 2.0 8.0 SSE 0.00 29.319
12/01/2002 12:30 a 38.5 38.5 38.5 38.9 38.0 65 27.8 2.0 9.0 SSE 0.00 29.335
12/01/2002 1:00 a 37.7 37.7 37.7 38.0 37.4 63 26.3 2.0 9.0 SSE 0.00 29.341
12/01/2002 1:30 a 36.5 36.5 36.5 37.4 35.8 66 26.2 2.0 8.0 SSE 0.00 29.369
12/01/2002 2:00 a 35.6 35.6 35.6 35.9 34.9 67 25.7 2.0 8.0 SSE 0.00 29.385
12/01/2002 2:30 a 34.6 34.6 34.6 34.9 34.3 68 25.1 2.0 8.0 SSE 0.00 29.393
12/01/2002 3:00 a 34.5 34.5 34.5 34.9 34.2 65 24.0 2.0 7.0 SSE 0.00 29.420
12/01/2002 3:30 a 34.1 34.1 34.1 35.0 33.0 67 24.3 1.0 7.0 SSE 0.00 29.420
12/01/2002 4:00 a 32.8 32.8 32.8 33.0 32.4 66 22.7 2.0 6.0 SSE 0.00 29.420
12/01/2002 4:30 a 33.0 33.0 33.0 33.5 32.2 63 21.8 2.0 8.0 SSE 0.00 29.447
12/01/2002 5:00 a 32.9 32.9 32.9 33.2 32.6 65 22.4 2.0 9.0 SSE 0.00 29.468
12/01/2002 5:30 a 32.3 32.3 32.3 32.9 31.4 68 22.9 2.0 9.0 SSE 0.00 29.484
12/01/2002 6:00 a 30.6 30.6 30.6 31.4 30.2 65 20.2 2.0 7.0 SSE 0.00 29.503
12/01/2002 6:30 a 30.1 30.1 30.1 30.4 29.6 67 20.5 2.0 8.0 SSE 0.00 29.521
12/01/2002 7:00 a 29.6 29.6 29.6 29.7 29.4 64 18.9 2.0 7.0 SSE 0.00 29.537
12/01/2002 7:30 a 29.7 29.7 29.7 30.0 29.4 63 18.7 2.0 6.0 SSE 0.00 29.555
12/01/2002 8:00 a 32.2 32.2 32.2 36.3 30.0 51 16.1 2.0 9.0 SSE 0.00 29.572
12/01/2002 8:30 a 37.6 37.6 37.6 39.0 35.6 45 18.2 3.0 12.0 SSE 0.00 29.592
12/01/2002 9:00 a 34.9 34.9 34.9 39.0 33.0 48 17.2 3.0 12.0 SSE 0.00 29.608
12/01/2002 9:30 a 34.4 34.4 34.4 36.0 33.5 33 8.3 4.0 12.0 SSE 0.00 29.630
12/01/2002 10:00 a 35.8 35.8 35.8 37.1 34.5 33 9.5 4.0 12.0 SSE 0.00 29.644
12/01/2002 10:30 a 37.4 37.4 37.4 40.6 34.6 27 6.5 4.0 19.0 SSE 0.00 29.654
12/01/2002 11:00 a 38.3 38.3 38.3 40.7 36.4 23 3.8 4.0 18.0 SSE 0.00 29.643
12/01/2002 11:30 a 40.9 40.9 40.9 43.3 39.0 23 6.0 4.0 17.0 SSE 0.01 29.645
12/01/2002 12:00 p 36.8 36.8 36.8 41.2 33.6 29 7.5 4.0 13.0 SSE 0.00 29.653
12/01/2002 12:30 p 33.4 33.4 33.4 33.7 33.1 29 4.6 4.0 13.0 SSE 0.00 29.650
12/01/2002 1:00 p 33.5 33.5 33.5 34.6 33.0 40 11.8 4.0 12.0 SSE 0.00 29.665
12/01/2002 1:30 p 35.8 35.8 35.8 37.0 34.5 39 13.3 2.0 11.0 S 0.00 29.677
12/01/2002 2:00 p 34.7 34.7 34.7 36.3 32.9 43 14.5 3.0 12.0 SSE 0.00 29.701
12/01/2002 2:30 p 31.9 31.9 31.9 32.9 31.2 46 13.5 3.0 12.0 SSE 0.00 29.714
12/01/2002 3:00 p 31.3 31.3 31.3 31.8 30.9 44 11.9 3.0 11.0 SSE 0.00 29.726
12/01/2002 3:30 p 32.0 32.0 32.0 32.2 31.8 44 12.6 3.0 12.0 SSE 0.00 29.735
12/01/2002 4:00 p 31.7 31.7 31.7 31.9 31.1 41 10.7 3.0 13.0 SSE 0.00 29.755
12/01/2002 4:30 p 30.5 30.5 30.5 31.1 29.9 45 11.7 3.0 11.0 SSE 0.00 29.770
12/01/2002 5:00 p 29.5 29.5 29.5 30.0 29.4 44 10.3 2.0 6.0 SSE 0.00 29.787
12/01/2002 5:30 p 29.3 29.3 29.3 29.6 28.8 42 9.1 2.0 7.0 SSE 0.00 29.790
12/01/2002 6:00 p 28.6 28.6 28.6 28.9 28.2 43 9.0 1.0 6.0 SSE 0.00 29.805
12/01/2002 6:30 p 27.6 27.6 27.6 28.2 27.2 46 9.5 1.0 5.0 SSE 0.00 29.804
12/01/2002 7:00 p 27.1 27.1 27.1 27.5 26.7 51 11.4 0.0 3.0 SSE 0.00 29.820
12/01/2002 7:30 p 26.8 26.8 26.8 27.2 26.3 49 10.2 0.0 3.0 SSE 0.00 29.834
12/01/2002 8:00 p 26.2 26.2 26.2 26.7 25.0 51 10.6 0.0 3.0 SSE 0.00 29.835
12/01/2002 8:30 p 24.4 24.4 24.4 25.0 24.2 54 10.2 0.0 2.0 SE 0.00 29.836
12/01/2002 9:00 p 24.2 24.2 24.2 24.4 24.0 53 9.6 0.0 1.0 SE 0.00 29.856
12/01/2002 9:30 p 24.2 24.2 24.2 24.4 24.0 53 9.6 0.0 2.0 SE 0.00 29.867
12/01/2002 10:00 p 24.4 24.4 24.4 24.6 24.2 52 9.3 0.0 2.0 SE 0.00 29.867
12/01/2002 10:30 p 24.7 24.7 24.7 24.9 24.3 53 10.0 0.0 3.0 SSW 0.00 29.869
12/01/2002 11:00 p 23.6 23.6 23.6 24.3 23.2 57 10.6 0.0 0.0 --- 0.00 29.866
12/01/2002 11:30 p 23.1 23.1 23.1 23.3 22.6 58 10.5 0.0 1.0 --- 0.00 29.871
12/02/2002 12:00 a 22.6 22.6 22.6 22.8 22.3 59 10.4 0.0 0.0 --- 0.00 29.870
12/02/2002 12:30 a 22.5 22.5 22.5 22.8 22.4 59 10.4 0.0 0.0 --- 0.00 29.853
12/02/2002 1:00 a 24.6 24.6 24.6 26.2 22.7 51 9.1 0.0 2.0 SSW 0.00 29.852
12/02/2002 1:30 a 26.8 26.8 26.8 27.1 26.3 50 10.7 0.0 2.0 SSW 0.00 29.848
12/02/2002 2:00 a 27.1 27.1 27.1 27.2 27.0 50 10.9 0.0 1.0 --- 0.00 29.854
12/02/2002 2:30 a 27.1 27.1 27.1 27.4 27.0 51 11.4 0.0 1.0 --- 0.00 29.851
12/02/2002 3:00 a 27.3 27.3 27.3 27.5 27.2 53 12.4 0.0 0.0 --- 0.00 29.858
12/02/2002 3:30 a 27.5 27.5 27.5 28.0 27.2 51 11.8 0.0 2.0 SSW 0.00 29.853
12/02/2002 4:00 a 28.0 28.0 28.0 28.1 27.9 51 12.2 0.0 0.0 --- 0.00 29.842
12/02/2002 4:30 a 28.2 28.2 28.2 28.5 28.0 50 12.0 0.0 1.0 SSW 0.00 29.840
12/02/2002 5:00 a 28.5 28.5 28.5 28.6 28.4 51 12.7 0.0 2.0 SSW 0.00 29.843
12/02/2002 5:30 a 28.4 28.4 28.4 28.4 28.3 52 13.0 0.0 1.0 SSW 0.00 29.835
12/02/2002 6:00 a 28.4 28.4 28.4 28.5 28.4 56 14.7 0.0 1.0 --- 0.00 29.835
12/02/2002 6:30 a 28.3 28.3 28.3 28.4 28.0 58 15.4 0.0 1.0 --- 0.00 29.839
12/02/2002 7:00 a 28.1 28.1 28.1 28.3 28.0 59 15.6 0.0 0.0 --- 0.00 29.844
12/02/2002 7:30 a 27.8 27.8 27.8 28.0 27.7 60 15.7 0.0 0.0 --- 0.00 29.848
12/02/2002 8:00 a 28.5 28.5 28.5 29.1 28.0 60 16.4 0.0 1.0 --- 0.00 29.848
12/02/2002 8:30 a 29.6 29.6 29.6 29.8 29.1 59 17.0 0.0 0.0 --- 0.00 29.840
12/02/2002 9:00 a 30.2 30.2 30.2 30.8 29.8 58 17.2 0.0 0.0 --- 0.00 29.851
12/02/2002 9:30 a 31.2 31.2 31.2 31.7 30.8 56 17.3 0.0 2.0 SSW 0.00 29.852
12/02/2002 10:00 a 32.0 32.0 32.0 32.4 31.7 53 16.8 0.0 2.0 SSW 0.00 29.851
12/02/2002 10:30 a 33.1 33.1 33.1 33.7 32.4 51 17.0 0.0 3.0 SSW 0.00 29.838
12/02/2002 11:00 a 34.2 34.2 34.2 34.6 33.7 49 17.0 0.0 2.0 S 0.00 29.818
12/02/2002 11:30 a 34.7 34.7 34.7 35.0 34.5 48 17.0 0.0 3.0 S 0.00 29.799
12/02/2002 12:00 p 35.2 35.2 35.2 35.7 35.0 47 17.0 0.0 2.0 S 0.00 29.787
12/02/2002 12:30 p 36.2 36.2 36.2 36.7 35.6 44 16.4 0.0 2.0 S 0.00 29.778
12/02/2002 1:00 p 37.3 37.3 37.3 37.8 36.7 41 15.8 0.0 2.0 SE 0.00 29.761
12/02/2002 1:30 p 38.0 38.0 38.0 38.1 37.8 40 15.8 0.0 2.0 SE 0.00 29.751
12/02/2002 2:00 p 38.0 38.0 38.0 38.1 37.9 42 17.0 0.0 2.0 ENE 0.00 29.749
12/02/2002 2:30 p 38.0 38.0 38.0 38.1 37.9 41 16.4 0.0 1.0 ENE 0.00 29.738
12/02/2002 3:00 p 37.6 37.6 37.6 37.9 37.4 42 16.6 0.0 1.0 ESE 0.00 29.744
12/02/2002 3:30 p 37.4 37.4 37.4 37.5 37.3 41 15.9 0.0 2.0 ESE 0.00 29.740
12/02/2002 4:00 p 37.0 37.0 37.0 37.3 36.7 44 17.1 0.0 0.0 --- 0.00 29.741
12/02/2002 4:30 p 36.5 36.5 36.5 36.7 36.3 45 17.2 0.0 0.0 --- 0.00 29.730
12/02/2002 5:00 p 36.0 36.0 36.0 36.3 35.6 50 19.2 0.0 0.0 --- 0.00 29.726
12/02/2002 5:30 p 35.2 35.2 35.2 35.6 35.0 49 18.0 0.0 0.0 --- 0.00 29.720
12/02/2002 6:00 p 35.1 35.1 35.1 35.2 34.8 55 20.6 0.0 2.0 ESE 0.00 29.719
12/02/2002 6:30 p 34.7 34.7 34.7 35.1 34.3 55 20.2 0.0 2.0 ESE 0.00 29.720
12/02/2002 7:00 p 34.8 34.8 34.8 35.0 34.5 56 20.7 0.0 1.0 --- 0.00 29.720
12/02/2002 7:30 p 34.5 34.5 34.5 34.7 34.3 57 20.9 0.0 0.0 --- 0.00 29.712
12/02/2002 8:00 p 34.7 34.7 34.7 34.8 34.3 55 20.2 0.0 2.0 ESE 0.00 29.712
12/02/2002 8:30 p 34.5 34.5 34.5 34.8 34.3 56 20.4 0.0 2.0 ESE 0.00 29.702
12/02/2002 9:00 p 34.9 34.9 34.9 34.9 34.8 57 21.2 0.0 0.0 --- 0.00 29.698
12/02/2002 9:30 p 34.4 34.4 34.4 34.8 34.1 58 21.2 0.0 0.0 --- 0.00 29.704
12/02/2002 10:00 p 34.7 34.7 34.7 35.2 34.3 50 18.0 0.0 0.0 --- 0.00 29.709
12/02/2002 10:30 p 34.9 34.9 34.9 35.2 34.4 56 20.8 0.0 0.0 --- 0.00 29.705
12/02/2002 11:00 p 34.4 34.4 34.4 34.8 34.2 53 19.1 0.0 0.0 --- 0.00 29.711
12/02/2002 11:30 p 35.3 35.3 35.3 36.0 34.7 46 16.6 0.0 3.0 ESE 0.00 29.721
12/03/2002 12:00 a 36.0 36.0 36.0 36.1 35.9 48 18.2 1.0 5.0 S 0.00 29.735
12/03/2002 12:30 a 35.7 35.7 35.7 36.0 35.2 55 21.1 1.0 8.0 SSW 0.00 29.750
12/03/2002 1:00 a 32.9 32.9 32.9 35.2 31.2 57 19.4 2.0 10.0 SSE 0.00 29.786
12/03/2002 1:30 a 30.1 30.1 30.1 31.2 29.4 56 16.3 2.0 9.0 S 0.00 29.795
12/03/2002 2:00 a 28.5 28.5 28.5 29.4 27.4 54 14.0 3.0 18.0 S 0.00 29.829
12/03/2002 2:30 a 26.8 26.8 26.8 27.4 26.3 55 12.8 2.0 8.0 S 0.00 29.851
12/03/2002 3:00 a 26.0 26.0 26.0 26.3 25.8 51 10.4 2.0 10.0 S 0.00 29.872
12/03/2002 3:30 a 25.5 25.5 25.5 26.0 24.7 55 11.6 2.0 8.0 SSE 0.00 29.896
12/03/2002 4:00 a 24.2 24.2 24.2 24.7 23.7 54 10.0 2.0 10.0 SSE 0.00 29.910
12/03/2002 4:30 a 23.2 23.2 23.2 23.7 23.0 51 7.8 1.0 6.0 SSW 0.00 29.930
12/03/2002 5:00 a 22.9 22.9 22.9 23.2 22.6 52 7.9 2.0 14.0 S 0.00 29.964
12/03/2002 5:30 a 22.5 22.5 22.5 23.2 21.4 59 10.4 2.0 8.0 SSW 0.00 29.986
12/03/2002 6:00 a 20.7 20.7 20.7 21.4 20.3 56 7.5 2.0 7.0 SSW 0.00 30.011
12/03/2002 6:30 a 20.1 20.1 20.1 20.4 19.5 42 0.7 2.0 15.0 S 0.00 30.041
12/03/2002 7:00 a 18.9 18.9 18.9 19.6 18.4 40 -1.4 3.0 12.0 SSW 0.00 30.053
12/03/2002 7:30 a 18.2 18.2 18.2 18.4 18.1 41 -1.5 3.0 14.0 S 0.00 30.083
12/03/2002 8:00 a 20.1 20.1 20.1 24.1 18.2 33 -4.4 3.0 11.0 SSE 0.00 30.108
12/03/2002 8:30 a 26.3 26.3 26.3 27.3 24.2 28 -2.4 3.0 9.0 SSE 0.00 30.129
12/03/2002 9:00 a 24.6 24.6 24.6 27.0 23.4 33 -0.4 3.0 12.0 S 0.00 30.144
12/03/2002 9:30 a 22.8 22.8 22.8 23.6 22.1 33 -2.0 3.0 9.0 S 0.00 30.171
12/03/2002 10:00 a 24.0 24.0 24.0 25.1 22.9 35 0.3 2.0 11.0 SW 0.00 30.182
12/03/2002 10:30 a 25.2 25.2 25.2 27.7 22.8 32 -0.5 3.0 12.0 S 0.00 30.190
12/03/2002 11:00 a 29.0 29.0 29.0 30.9 24.4 26 -1.6 3.0 8.0 S 0.00 30.194
12/03/2002 11:30 a 30.8 30.8 30.8 32.0 30.0 23 -2.6 3.0 10.0 SSE 0.00 30.178
12/03/2002 12:00 p 30.5 30.5 30.5 32.7 26.3 29 2.0 3.0 10.0 SSE 0.00 30.179
12/03/2002 12:30 p 25.6 25.6 25.6 26.3 25.2 30 -1.5 4.0 12.0 SSE 0.00 30.179
12/03/2002 1:00 p 25.6 25.6 25.6 25.9 25.4 30 -1.5 3.0 11.0 SSE 0.00 30.178
12/03/2002 1:30 p 26.0 26.0 26.0 26.2 25.8 27 -3.4 4.0 13.0 SSE 0.00 30.182
12/03/2002 2:00 p 26.2 26.2 26.2 26.3 26.1 27 -3.2 4.0 12.0 SSE 0.00 30.184
12/03/2002 2:30 p 26.2 26.2 26.2 26.4 26.1 27 -3.2 3.0 9.0 SSE 0.00 30.195
12/03/2002 3:00 p 26.2 26.2 26.2 26.4 26.1 28 -2.4 3.0 12.0 SSE 0.00 30.202
12/03/2002 3:30 p 25.9 25.9 25.9 26.1 25.7 29 -2.0 2.0 8.0 SSE 0.00 30.213
12/03/2002 4:00 p 25.3 25.3 25.3 25.7 24.8 29 -2.5 3.0 10.0 SSE 0.00 30.225
12/03/2002 4:30 p 24.1 24.1 24.1 24.8 23.7 33 -0.8 2.0 8.0 SSE 0.00 30.237
12/03/2002 5:00 p 23.7 23.7 23.7 23.9 23.5 34 -0.6 3.0 8.0 SSE 0.00 30.256
12/03/2002 5:30 p 23.2 23.2 23.2 23.6 22.8 34 -1.0 2.0 9.0 SSE 0.00 30.260
12/03/2002 6:00 p 22.6 22.6 22.6 22.9 22.3 35 -0.9 2.0 10.0 SSE 0.00 30.277
12/03/2002 6:30 p 22.3 22.3 22.3 22.5 22.0 35 -1.2 2.0 10.0 SSE 0.00 30.285
12/03/2002 7:00 p 21.7 21.7 21.7 22.1 21.4 36 -1.1 2.0 8.0 SSE 0.00 30.286
12/03/2002 7:30 p 21.2 21.2 21.2 21.5 20.8 37 -1.0 2.0 7.0 SSE 0.00 30.288
12/03/2002 8:00 p 20.5 20.5 20.5 20.8 20.4 35 -2.8 2.0 5.0 SSE 0.00 30.300
12/03/2002 8:30 p 20.3 20.3 20.3 20.6 20.0 35 -3.0 2.0 9.0 SSE 0.00 30.308
12/03/2002 9:00 p 19.8 19.8 19.8 20.4 19.6 38 -1.7 2.0 7.0 SSE 0.00 30.313
12/03/2002 9:30 p 19.7 19.7 19.7 19.8 19.6 39 -1.2 2.0 7.0 SSE 0.00 30.322
12/03/2002 10:00 p 19.2 19.2 19.2 19.6 18.7 42 -0.1 1.0 7.0 SSE 0.00 30.322
12/03/2002 10:30 p 18.0 18.0 18.0 18.7 17.6 46 0.7 0.0 4.0 SSE 0.00 30.327
12/03/2002 11:00 p 17.1 17.1 17.1 17.6 16.9 48 0.8 0.0 4.0 S 0.00 30.321
12/03/2002 11:30 p 17.9 17.9 17.9 18.2 17.2 48 1.5 1.0 4.0 S 0.00 30.332
12/04/2002 12:00 a 17.6 17.6 17.6 17.8 17.4 50 2.1 0.0 5.0 SSE 0.00 30.338
12/04/2002 12:30 a 16.6 16.6 16.6 17.4 15.9 54 2.9 0.0 2.0 SSE 0.00 30.331
12/04/2002 1:00 a 16.8 16.8 16.8 17.5 16.0 56 3.8 0.0 3.0 SSE 0.00 30.333
12/04/2002 1:30 a 16.5 16.5 16.5 17.0 15.7 60 5.1 0.0 2.0 S 0.00 30.343
12/04/2002 2:00 a 16.2 16.2 16.2 16.6 15.6 59 4.4 0.0 3.0 S 0.00 30.344
12/04/2002 2:30 a 15.6 15.6 15.6 16.4 15.3 62 4.9 0.0 0.0 --- 0.00 30.354
12/04/2002 3:00 a 15.3 15.3 15.3 15.5 15.2 63 5.0 0.0 0.0 --- 0.00 30.356
12/04/2002 3:30 a 14.8 14.8 14.8 15.2 14.6 64 4.8 0.0 0.0 --- 0.00 30.347
12/04/2002 4:00 a 14.0 14.0 14.0 14.6 13.5 68 5.4 0.0 0.0 --- 0.00 30.340
12/04/2002 4:30 a 13.1 13.1 13.1 13.6 12.5 73 6.1 0.0 0.0 --- 0.00 30.345
12/04/2002 5:00 a 12.5 12.5 12.5 12.7 12.3 73 5.5 0.0 0.0 --- 0.00 30.344
12/04/2002 5:30 a 12.2 12.2 12.2 12.3 11.9 73 5.2 0.0 0.0 --- 0.00 30.352
12/04/2002 6:00 a 11.9 11.9 11.9 12.1 11.6 75 5.5 0.0 0.0 --- 0.00 30.354
12/04/2002 6:30 a 11.4 11.4 11.4 11.6 11.2 78 5.9 0.0 0.0 --- 0.00 30.353
12/04/2002 7:00 a 11.5 11.5 11.5 11.7 11.3 79 6.3 0.0 0.0 --- 0.00 30.356
12/04/2002 7:30 a 12.2 12.2 12.2 13.5 11.4 76 6.1 0.0 0.0 --- 0.00 30.365
12/04/2002 8:00 a 16.8 16.8 16.8 22.4 13.5 58 4.6 0.0 2.0 S 0.00 30.357
12/04/2002 8:30 a 27.2 27.2 27.2 29.1 22.5 45 8.7 0.0 2.0 S 0.00 30.356
12/04/2002 9:00 a 25.5 25.5 25.5 28.5 24.2 52 10.3 0.0 2.0 S 0.00 30.354
12/04/2002 9:30 a 24.2 24.2 24.2 25.3 23.6 52 9.1 0.0 3.0 S 0.00 30.353
12/04/2002 10:00 a 26.6 26.6 26.6 28.2 25.3 50 10.5 1.0 4.0 S 0.00 30.354
12/04/2002 10:30 a 29.6 29.6 29.6 32.5 26.3 42 9.3 1.0 5.0 SSE 0.00 30.350
12/04/2002 11:00 a 30.5 30.5 30.5 31.4 29.6 46 12.2 1.0 5.0 SSE 0.00 30.328
12/04/2002 11:30 a 29.8 29.8 29.8 30.1 29.3 46 11.6 1.0 6.0 SSE 0.00 30.321
12/04/2002 12:00 p 30.3 30.3 30.3 30.7 29.8 46 12.0 1.0 5.0 SSE 0.00 30.309
12/04/2002 12:30 p 31.0 31.0 31.0 31.6 30.5 44 11.7 1.0 5.0 SSE 0.00 30.297
12/04/2002 1:00 p 32.1 32.1 32.1 32.4 31.6 44 12.7 1.0 6.0 SSE 0.00 30.299
12/04/2002 1:30 p 32.3 32.3 32.3 32.5 31.9 43 12.3 1.0 5.0 SSE 0.00 30.292
12/04/2002 2:00 p 31.3 31.3 31.3 31.9 30.7 47 13.4 1.0 6.0 SSE 0.00 30.289
12/04/2002 2:30 p 30.3 30.3 30.3 30.7 29.8 46 12.0 1.0 5.0 SSE 0.00 30.280
12/04/2002 3:00 p 29.1 29.1 29.1 29.8 28.5 49 12.3 1.0 7.0 SSE 0.00 30.273
12/04/2002 3:30 p 28.3 28.3 28.3 28.6 27.6 53 13.4 1.0 5.0 SSE 0.00 30.283
12/04/2002 4:00 p 27.5 27.5 27.5 27.6 27.1 54 13.1 0.0 2.0 SSE 0.00 30.301
12/04/2002 4:30 p 26.5 26.5 26.5 27.1 25.9 56 12.9 0.0 4.0 SSE 0.00 30.301
12/04/2002 5:00 p 25.8 25.8 25.8 26.2 25.4 58 13.1 0.0 3.0 SSE 0.00 30.311
12/04/2002 5:30 p 25.0 25.0 25.0 25.4 24.7 60 13.1 0.0 1.0 SSE 0.00 30.298
12/04/2002 6:00 p 24.4 24.4 24.4 24.7 24.1 60 12.5 0.0 0.0 --- 0.00 30.299
12/04/2002 6:30 p 23.8 23.8 23.8 24.2 23.6 63 13.1 0.0 0.0 --- 0.00 30.307
12/04/2002 7:00 p 23.2 23.2 23.2 23.6 22.8 65 13.2 0.0 0.0 --- 0.00 30.297
12/04/2002 7:30 p 22.8 22.8 22.8 23.0 22.6 65 12.8 0.0 0.0 --- 0.00 30.293
12/04/2002 8:00 p 22.7 22.7 22.7 22.9 22.4 68 13.7 0.0 0.0 --- 0.00 30.297
12/04/2002 8:30 p 22.8 22.8 22.8 23.5 22.4 66 13.2 0.0 0.0 --- 0.00 30.287
12/04/2002 9:00 p 23.9 23.9 23.9 24.3 23.5 67 14.6 0.0 1.0 --- 0.00 30.280
12/04/2002 9:30 p 24.1 24.1 24.1 24.4 23.8 68 15.1 0.0 2.0 SSE 0.00 30.279
12/04/2002 10:00 p 23.9 23.9 23.9 24.5 23.6 66 14.2 0.0 0.0 --- 0.00 30.275
12/04/2002 10:30 p 24.4 24.4 24.4 24.7 24.2 67 15.0 0.0 0.0 --- 0.00 30.275
12/04/2002 11:00 p 25.0 25.0 25.0 25.4 24.6 64 14.6 0.0 0.0 --- 0.00 30.267
12/04/2002 11:30 p 25.7 25.7 25.7 25.8 25.4 66 15.9 0.0 1.0 --- 0.00 30.270
12/05/2002 12:00 a 25.5 25.5 25.5 25.6 25.4 68 16.4 0.0 0.0 --- 0.00 30.267
12/05/2002 12:30 a 25.4 25.4 25.4 25.5 25.3 68 16.3 0.0 0.0 --- 0.00 30.264
12/05/2002 1:00 a 25.6 25.6 25.6 25.8 25.4 65 15.5 0.0 0.0 --- 0.00 30.251
12/05/2002 1:30 a 25.9 25.9 25.9 26.0 25.8 64 15.4 0.0 0.0 --- 0.00 30.254
12/05/2002 2:00 a 26.0 26.0 26.0 26.2 25.9 62 14.8 0.0 0.0 --- 0.00 30.256
12/05/2002 2:30 a 26.3 26.3 26.3 26.5 26.2 61 14.7 0.0 0.0 --- 0.00 30.246
12/05/2002 3:00 a 26.7 26.7 26.7 27.0 26.5 58 13.9 0.0 0.0 --- 0.00 30.227
12/05/2002 3:30 a 27.0 27.0 27.0 27.1 27.0 59 14.6 0.0 0.0 --- 0.00 30.213
12/05/2002 4:00 a 27.1 27.1 27.1 27.3 27.0 57 13.9 0.0 0.0 --- 0.00 30.200
12/05/2002 4:30 a 27.4 27.4 27.4 27.5 27.2 56 13.8 0.0 0.0 --- 0.00 30.181
12/05/2002 5:00 a 27.6 27.6 27.6 27.7 27.5 57 14.4 0.0 1.0 SSE 0.00 30.152
12/05/2002 5:30 a 27.9 27.9 27.9 28.0 27.7 57 14.7 0.0 0.0 --- 0.00 30.142
12/05/2002 6:00 a 28.1 28.1 28.1 28.2 28.0 57 14.8 0.0 1.0 SSE 0.00 30.127
12/05/2002 6:30 a 28.0 28.0 28.0 28.2 27.5 72 20.2 1.0 4.0 NW 0.00 30.117
12/05/2002 7:00 a 27.3 27.3 27.3 27.5 27.0 81 22.3 1.0 3.0 N 0.00 30.122
12/05/2002 7:30 a 26.7 26.7 26.7 27.0 26.5 86 23.1 1.0 4.0 NNW 0.00 30.116
12/05/2002 8:00 a 26.4 26.4 26.4 26.5 26.4 88 23.3 1.0 4.0 NW 0.00 30.085
12/05/2002 8:30 a 26.7 26.7 26.7 26.9 26.4 89 23.9 0.0 3.0 NNW 0.00 30.085
12/05/2002 9:00 a 27.0 27.0 27.0 27.0 26.8 89 24.2 1.0 4.0 NW 0.00 30.087
12/05/2002 9:30 a 27.1 27.1 27.1 27.3 27.0 90 24.6 1.0 4.0 NNW 0.00 30.069
12/05/2002 10:00 a 27.1 27.1 27.1 27.3 26.9 90 24.6 1.0 4.0 NW 0.00 30.061
12/05/2002 10:30 a 27.1 27.1 27.1 27.1 27.0 90 24.6 1.0 5.0 NW 0.00 30.042
12/05/2002 11:00 a 27.3 27.3 27.3 27.4 27.1 91 25.0 1.0 4.0 NW 0.00 30.003
12/05/2002 11:30 a 27.5 27.5 27.5 27.5 27.4 90 25.0 1.0 4.0 NNW 0.00 29.957
12/05/2002 12:00 p 27.4 27.4 27.4 27.6 27.2 90 24.9 1.0 5.0 NW 0.00 29.936
12/05/2002 12:30 p 27.1 27.1 27.1 27.2 27.0 91 24.8 1.0 4.0 NW 0.00 29.898
12/05/2002 1:00 p 27.1 27.1 27.1 27.2 27.0 91 24.8 1.0 4.0 WNW 0.00 29.879
12/05/2002 1:30 p 27.2 27.2 27.2 27.3 27.1 91 24.9 0.0 3.0 WSW 0.00 29.863
12/05/2002 2:00 p 27.2 27.2 27.2 27.3 27.1 91 24.9 0.0 3.0 NW 0.00 29.852
12/05/2002 2:30 p 27.0 27.0 27.0 27.2 27.0 91 24.7 0.0 3.0 NW 0.00 29.834
12/05/2002 3:00 p 26.8 26.8 26.8 27.0 26.7 91 24.5 0.0 2.0 NW 0.00 29.827
12/05/2002 3:30 p 26.6 26.6 26.6 26.7 26.6 91 24.3 0.0 1.0 NW 0.00 29.824
12/05/2002 4:00 p 26.6 26.6 26.6 26.7 26.6 91 24.3 0.0 2.0 WSW 0.00 29.823
12/05/2002 4:30 p 26.5 26.5 26.5 26.7 26.4 91 24.2 0.0 2.0 WSW 0.00 29.826
12/05/2002 5:00 p 26.4 26.4 26.4 26.5 26.4 91 24.1 0.0 1.0 WSW 0.00 29.836
12/05/2002 5:30 p 26.4 26.4 26.4 26.5 26.3 91 24.1 0.0 1.0 NW 0.00 29.829
12/05/2002 6:00 p 26.3 26.3 26.3 26.4 26.2 91 24.0 0.0 2.0 NW 0.00 29.839
12/05/2002 6:30 p 26.2 26.2 26.2 26.3 26.2 90 23.7 0.0 1.0 WSW 0.00 29.835
12/05/2002 7:00 p 26.1 26.1 26.1 26.2 26.0 90 23.6 0.0 1.0 W 0.00 29.842
12/05/2002 7:30 p 26.0 26.0 26.0 26.1 25.9 91 23.7 0.0 2.0 WSW 0.00 29.840
12/05/2002 8:00 p 26.0 26.0 26.0 26.1 25.9 91 23.7 0.0 1.0 SW 0.00 29.840
12/05/2002 8:30 p 26.2 26.2 26.2 26.3 26.0 90 23.7 0.0 3.0 S 0.00 29.842
12/05/2002 9:00 p 26.3 26.3 26.3 26.4 26.3 90 23.8 0.0 3.0 SSW 0.00 29.837
12/05/2002 9:30 p 26.5 26.5 26.5 26.6 26.3 91 24.2 0.0 2.0 S 0.00 29.842
12/05/2002 10:00 p 26.6 26.6 26.6 26.7 26.5 90 24.1 0.0 2.0 S 0.00 29.856
12/05/2002 10:30 p 26.8 26.8 26.8 26.8 26.7 90 24.3 0.0 1.0 S 0.00 29.856
12/05/2002 11:00 p 26.9 26.9 26.9 27.0 26.8 91 24.6 0.0 2.0 SSW 0.00 29.868
12/05/2002 11:30 p 27.0 27.0 27.0 27.1 27.0 91 24.7 0.0 3.0 SSW 0.00 29.861
12/06/2002 12:00 a 26.9 26.9 26.9 27.0 26.8 91 24.6 0.0 2.0 SSW 0.00 29.862
12/06/2002 12:30 a 27.1 27.1 27.1 27.2 26.9 91 24.8 0.0 1.0 SSW 0.00 29.857
12/06/2002 1:00 a 27.2 27.2 27.2 27.3 27.1 91 24.9 0.0 1.0 SSW 0.00 29.861
12/06/2002 1:30 a 27.3 27.3 27.3 27.3 27.2 91 25.0 0.0 2.0 SSW 0.00 29.870
12/06/2002 2:00 a 27.2 27.2 27.2 27.3 27.2 91 24.9 0.0 1.0 SSW 0.00 29.882
12/06/2002 2:30 a 27.2 27.2 27.2 27.3 27.1 91 24.9 0.0 0.0 --- 0.00 29.887
12/06/2002 3:00 a 27.2 27.2 27.2 27.2 27.1 91 24.9 0.0 0.0 --- 0.00 29.883
12/06/2002 3:30 a 27.1 27.1 27.1 27.2 27.0 91 24.8 0.0 0.0 --- 0.00 29.888
12/06/2002 4:00 a 27.1 27.1 27.1 27.2 27.1 91 24.8 0.0 0.0 --- 0.00 29.896
12/06/2002 4:30 a 27.1 27.1 27.1 27.2 27.0 91 24.8 0.0 3.0 SSE 0.00 29.898
12/06/2002 5:00 a 27.1 27.1 27.1 27.1 26.9 91 24.8 0.0 2.0 SSE 0.00 29.904
12/06/2002 5:30 a 26.9 26.9 26.9 27.0 26.8 91 24.6 0.0 0.0 --- 0.00 29.912
12/06/2002 6:00 a 26.9 26.9 26.9 26.9 26.8 91 24.6 0.0 0.0 --- 0.00 29.928
12/06/2002 6:30 a 26.8 26.8 26.8 26.9 26.7 91 24.5 0.0 0.0 --- 0.00 29.931
12/06/2002 7:00 a 26.4 26.4 26.4 26.7 26.1 91 24.1 0.0 0.0 --- 0.00 29.942
12/06/2002 7:30 a 26.6 26.6 26.6 27.0 26.3 91 24.3 0.0 0.0 --- 0.00 29.947
12/06/2002 8:00 a 27.7 27.7 27.7 28.5 27.0 91 25.4 0.0 1.0 --- 0.00 29.953
12/06/2002 8:30 a 28.9 28.9 28.9 29.4 28.4 91 26.6 0.0 6.0 SSE 0.00 29.950
12/06/2002 9:00 a 29.9 29.9 29.9 30.4 29.4 91 27.6 0.0 4.0 SSE 0.00 29.969
12/06/2002 9:30 a 31.1 31.1 31.1 31.8 30.4 91 28.8 0.0 6.0 SSE 0.00 29.979
12/06/2002 10:00 a 31.9 31.9 31.9 32.4 31.2 91 29.6 2.0 7.0 SSE 0.00 29.977
12/06/2002 10:30 a 32.1 32.1 32.1 33.7 31.0 90 29.5 1.0 8.0 SSE 0.00 29.978
12/06/2002 11:00 a 33.9 33.9 33.9 34.9 33.0 88 30.7 2.0 11.0 SSE 0.00 29.968
12/06/2002 11:30 a 35.0 35.0 35.0 35.4 34.7 88 31.8 2.0 11.0 SSE 0.03 29.966
12/06/2002 12:00 p 34.7 34.7 34.7 35.5 34.1 89 31.8 3.0 10.0 SSE 0.05 29.962
12/06/2002 12:30 p 33.7 33.7 33.7 34.1 33.4 90 31.1 2.0 11.0 SSE 0.02 29.954
12/06/2002 1:00 p 33.2 33.2 33.2 33.5 33.1 89 30.3 3.0 11.0 SSE 0.00 29.956
12/06/2002 1:30 p 33.2 33.2 33.2 33.3 33.1 88 30.0 3.0 10.0 SSE 0.01 29.962
12/06/2002 2:00 p 33.1 33.1 33.1 33.2 33.0 87 29.7 2.0 10.0 SSE 0.00 29.967
12/06/2002 2:30 p 32.8 32.8 32.8 33.0 32.6 87 29.4 2.0 11.0 SSE 0.01 29.978
12/06/2002 3:00 p 32.5 32.5 32.5 32.7 32.3 86 28.8 3.0 8.0 SSE 0.00 29.980
12/06/2002 3:30 p 32.1 32.1 32.1 32.4 31.8 86 28.4 2.0 7.0 SSE 0.00 29.994
12/06/2002 4:00 p 30.9 30.9 30.9 31.8 30.3 86 27.2 1.0 6.0 S 0.01 30.009
12/06/2002 4:30 p 29.3 29.3 29.3 30.3 28.5 86 25.6 0.0 3.0 SSE 0.00 30.030
12/06/2002 5:00 p 27.3 27.3 27.3 28.5 26.4 87 23.9 0.0 2.0 SSE 0.00 30.036
12/06/2002 5:30 p 25.8 25.8 25.8 26.5 25.2 87 22.5 0.0 0.0 --- 0.00 30.050
12/06/2002 6:00 p 24.8 24.8 24.8 25.3 23.9 87 21.5 0.0 0.0 --- 0.00 30.061
12/06/2002 6:30 p 23.0 23.0 23.0 23.9 22.4 87 19.7 0.0 0.0 --- 0.00 30.069
12/06/2002 7:00 p 22.7 22.7 22.7 22.9 22.5 87 19.4 0.0 1.0 SSE 0.00 30.079
12/06/2002 7:30 p 22.0 22.0 22.0 22.5 21.6 87 18.7 0.0 0.0 --- 0.00 30.085
12/06/2002 8:00 p 21.1 21.1 21.1 21.6 20.6 86 17.6 0.0 0.0 --- 0.00 30.092
12/06/2002 8:30 p 20.7 20.7 20.7 21.0 20.1 86 17.2 0.0 0.0 --- 0.00 30.099
12/06/2002 9:00 p 19.1 19.1 19.1 20.1 18.5 86 15.6 0.0 0.0 --- 0.00 30.107
12/06/2002 9:30 p 18.0 18.0 18.0 18.5 17.4 86 14.5 0.0 0.0 --- 0.00 30.115
12/06/2002 10:00 p 16.8 16.8 16.8 17.5 16.1 85 13.1 0.0 0.0 --- 0.00 30.117
12/06/2002 10:30 p 15.9 15.9 15.9 16.4 15.6 85 12.2 0.0 0.0 --- 0.00 30.117
12/06/2002 11:00 p 15.5 15.5 15.5 16.4 15.0 85 11.8 0.0 0.0 --- 0.00 30.118
12/06/2002 11:30 p 14.6 14.6 14.6 15.0 14.1 84 10.7 0.0 0.0 --- 0.00 30.115
12/07/2002 12:00 a 13.8 13.8 13.8 14.2 13.4 84 9.9 0.0 0.0 --- 0.00 30.122
12/07/2002 12:30 a 13.7 13.7 13.7 14.1 13.4 84 9.8 0.0 0.0 --- 0.00 30.120
12/07/2002 1:00 a 13.2 13.2 13.2 13.6 12.8 84 9.3 0.0 0.0 --- 0.00 30.115
12/07/2002 1:30 a 12.8 12.8 12.8 13.0 12.5 83 8.6 0.0 0.0 --- 0.00 30.122
12/07/2002 2:00 a 12.7 12.7 12.7 13.3 12.4 84 8.8 0.0 0.0 --- 0.00 30.131
12/07/2002 2:30 a 13.3 13.3 13.3 13.4 13.1 83 9.1 0.0 0.0 --- 0.00 30.131
12/07/2002 3:00 a 12.9 12.9 12.9 13.2 12.7 83 8.7 0.0 0.0 --- 0.00 30.125
12/07/2002 3:30 a 12.6 12.6 12.6 12.9 12.5 83 8.4 0.0 0.0 --- 0.00 30.128
12/07/2002 4:00 a 12.9 12.9 12.9 13.0 12.6 83 8.7 0.0 0.0 --- 0.00 30.123
12/07/2002 4:30 a 12.1 12.1 12.1 12.7 11.6 82 7.7 0.0 0.0 --- 0.00 30.123
12/07/2002 5:00 a 11.1 11.1 11.1 11.6 10.9 82 6.7 0.0 0.0 --- 0.00 30.123
12/07/2002 5:30 a 11.4 11.4 11.4 12.0 10.9 82 7.0 0.0 0.0 --- 0.00 30.123
12/07/2002 6:00 a 11.9 11.9 11.9 12.1 11.6 82 7.5 0.0 0.0 --- 0.00 30.132
12/07/2002 6:30 a 11.3 11.3 11.3 11.6 11.0 82 6.9 0.0 0.0 --- 0.00 30.136
12/07/2002 7:00 a 11.0 11.0 11.0 11.1 10.9 82 6.6 0.0 0.0 --- 0.00 30.132
12/07/2002 7:30 a 11.1 11.1 11.1 11.5 11.0 82 6.7 0.0 0.0 --- 0.00 30.136
12/07/2002 8:00 a 13.7 13.7 13.7 17.7 11.4 85 10.0 0.0 0.0 --- 0.00 30.134
12/07/2002 8:30 a 25.0 25.0 25.0 30.0 17.8 86 21.4 0.0 0.0 --- 0.00 30.137
12/07/2002 9:00 a 29.5 29.5 29.5 30.6 28.2 85 25.6 0.0 2.0 SSE 0.00 30.143
12/07/2002 9:30 a 27.2 27.2 27.2 29.2 26.3 85 23.3 0.0 3.0 SSE 0.00 30.130
12/07/2002 10:00 a 27.9 27.9 27.9 29.0 26.9 84 23.7 0.0 2.0 SSW 0.00 30.112
12/07/2002 10:30 a 29.6 29.6 29.6 31.7 28.1 84 25.4 1.0 4.0 S 0.00 30.104
12/07/2002 11:00 a 33.2 33.2 33.2 34.6 31.2 82 28.3 1.0 4.0 S 0.01 30.105
12/07/2002 11:30 a 35.1 35.1 35.1 35.4 34.6 81 29.9 1.0 5.0 S 0.03 30.081
12/07/2002 12:00 p 34.6 34.6 34.6 35.3 34.1 84 30.3 1.0 6.0 S 0.03 30.074
12/07/2002 12:30 p 33.6 33.6 33.6 34.2 33.2 83 29.0 2.0 5.0 S 0.01 30.053
12/07/2002 1:00 p 33.3 33.3 33.3 33.4 33.2 84 29.0 1.0 6.0 S 0.00 30.041
12/07/2002 1:30 p 33.4 33.4 33.4 33.5 33.3 83 28.8 1.0 4.0 S 0.01 30.024
12/07/2002 2:00 p 33.4 33.4 33.4 33.5 33.3 83 28.8 1.0 4.0 S 0.00 30.012
12/07/2002 2:30 p 33.4 33.4 33.4 33.5 33.4 82 28.5 0.0 4.0 SSE 0.00 30.005
12/07/2002 3:00 p 33.3 33.3 33.3 33.5 32.9 84 29.0 0.0 3.0 S 0.01 30.004
12/07/2002 3:30 p 32.6 32.6 32.6 33.0 32.1 84 28.3 0.0 2.0 ESE 0.00 30.000
12/07/2002 4:00 p 31.5 31.5 31.5 32.2 30.8 85 27.5 0.0 2.0 SSW 0.00 29.994
12/07/2002 4:30 p 30.1 30.1 30.1 30.8 29.3 85 26.1 0.0 2.0 SSW 0.00 29.992
12/07/2002 5:00 p 29.2 29.2 29.2 29.4 29.0 85 25.3 0.0 1.0 SSW 0.00 29.986
12/07/2002 5:30 p 28.5 28.5 28.5 29.3 27.5 86 24.9 0.0 1.0 SSW 0.00 29.996
12/07/2002 6:00 p 27.4 27.4 27.4 27.5 27.4 86 23.8 0.0 2.0 SSW 0.00 29.998
12/07/2002 6:30 p 27.5 27.5 27.5 27.8 27.0 87 24.1 0.0 1.0 SSW 0.00 29.997
12/07/2002 7:00 p 26.4 26.4 26.4 27.0 26.1 87 23.1 0.0 0.0 --- 0.00 29.992
12/07/2002 7:30 p 26.1 26.1 26.1 26.5 25.5 87 22.8 0.0 0.0 --- 0.00 29.994
12/07/2002 8:00 p 24.9 24.9 24.9 25.5 24.2 87 21.6 0.0 0.0 --- 0.00 29.991
12/07/2002 8:30 p 24.6 24.6 24.6 25.1 24.0 87 21.3 0.0 0.0 --- 0.00 29.990
12/07/2002 9:00 p 24.6 24.6 24.6 25.1 24.2 88 21.6 0.0 0.0 --- 0.00 29.987
12/07/2002 9:30 p 23.8 23.8 23.8 24.2 23.4 88 20.8 0.0 0.0 --- 0.00 29.993
12/07/2002 10:00 p 22.9 22.9 22.9 23.4 22.5 88 19.9 0.0 0.0 --- 0.00 29.984
12/07/2002 10:30 p 22.7 22.7 22.7 23.0 22.5 88 19.7 0.0 0.0 --- 0.00 29.989
12/07/2002 11:00 p 23.1 23.1 23.1 23.5 22.9 88 20.1 0.0 1.0 --- 0.00 29.985
12/07/2002 11:30 p 23.5 23.5 23.5 23.7 23.2 88 20.5 0.0 1.0 SSW 0.00 29.981
12/08/2002 12:00 a 23.0 23.0 23.0 23.3 22.7 88 20.0 0.0 0.0 --- 0.00 29.975
12/08/2002 12:30 a 22.6 22.6 22.6 22.8 22.0 87 19.3 0.0 0.0 --- 0.00 29.974
12/08/2002 1:00 a 21.5 21.5 21.5 22.0 20.8 87 18.2 0.0 0.0 --- 0.00 29.972
12/08/2002 1:30 a 19.9 19.9 19.9 20.8 19.1 87 16.7 0.0 0.0 --- 0.00 29.974
12/08/2002 2:00 a 18.6 18.6 18.6 19.2 18.2 87 15.4 0.0 0.0 --- 0.00 29.984
12/08/2002 2:30 a 18.1 18.1 18.1 18.3 17.9 86 14.6 0.0 0.0 --- 0.00 29.980
12/08/2002 3:00 a 17.6 17.6 17.6 18.0 17.2 86 14.1 0.0 0.0 --- 0.00 29.984
12/08/2002 3:30 a 17.1 17.1 17.1 17.4 16.8 86 13.6 0.0 0.0 --- 0.00 29.974
12/08/2002 4:00 a 16.6 16.6 16.6 16.9 16.2 86 13.2 0.0 0.0 --- 0.00 29.976
12/08/2002 4:30 a 15.9 15.9 15.9 16.3 15.5 85 12.2 0.0 0.0 --- 0.00 29.978
12/08/2002 5:00 a 15.4 15.4 15.4 15.6 15.3 85 11.7 0.0 0.0 --- 0.00 29.986
12/08/2002 5:30 a 15.0 15.0 15.0 15.3 14.8 85 11.3 0.0 0.0 --- 0.00 29.982
12/08/2002 6:00 a 15.5 15.5 15.5 16.0 14.9 85 11.8 0.0 0.0 --- 0.00 29.984
12/08/2002 6:30 a 15.6 15.6 15.6 15.9 15.5 85 11.9 0.0 0.0 --- 0.00 29.986
12/08/2002 7:00 a 15.5 15.5 15.5 15.7 15.3 85 11.8 0.0 0.0 --- 0.00 29.993
12/08/2002 7:30 a 16.0 16.0 16.0 16.6 15.5 86 12.6 0.0 0.0 --- 0.00 29.996
12/08/2002 8:00 a 19.0 19.0 19.0 22.5 16.6 87 15.8 0.0 0.0 --- 0.00 29.999
12/08/2002 8:30 a 28.8 28.8 28.8 32.8 22.6 84 24.6 0.0 3.0 SSW 0.00 30.006
12/08/2002 9:00 a 33.8 33.8 33.8 34.3 32.8 83 29.2 0.0 1.0 SSW 0.00 30.013
12/08/2002 9:30 a 34.1 34.1 34.1 34.4 33.5 85 30.1 0.0 2.0 SSW 0.00 30.007
12/08/2002 10:00 a 34.2 34.2 34.2 34.7 33.5 85 30.2 0.0 2.0 SSW 0.01 30.007
12/08/2002 10:30 a 34.9 34.9 34.9 35.5 34.6 85 30.9 0.0 1.0 SSW 0.00 30.002
12/08/2002 11:00 a 36.6 36.6 36.6 37.8 35.5 81 31.3 0.0 2.0 SSW 0.02 29.984
12/08/2002 11:30 a 39.5 39.5 39.5 41.6 37.8 70 30.5 0.0 4.0 SSW 0.02 29.966
12/08/2002 12:00 p 43.4 43.4 43.4 43.9 41.6 67 33.2 2.0 6.0 S 0.05 29.951
12/08/2002 12:30 p 43.5 43.5 43.5 43.8 43.2 69 34.0 1.0 6.0 S 0.03 29.936
12/08/2002 1:00 p 43.2 43.2 43.2 43.5 42.8 71 34.4 1.0 5.0 S 0.02 29.932
12/08/2002 1:30 p 43.1 43.1 43.1 43.5 42.6 70 34.0 1.0 5.0 SSE 0.01 29.934
12/08/2002 2:00 p 42.1 42.1 42.1 42.7 41.3 71 33.4 1.0 5.0 S 0.02 29.936
12/08/2002 2:30 p 41.1 41.1 41.1 41.3 41.0 75 33.8 1.0 4.0 S 0.01 29.937
12/08/2002 3:00 p 40.9 40.9 40.9 41.1 40.5 75 33.6 0.0 3.0 S 0.01 29.939
12/08/2002 3:30 p 39.8 39.8 39.8 40.5 39.1 76 32.9 0.0 2.0 S 0.00 29.951
12/08/2002 4:00 p 38.9 38.9 38.9 39.3 38.3 78 32.6 1.0 5.0 S 0.01 29.962
12/08/2002 4:30 p 37.9 37.9 37.9 38.3 37.2 79 32.0 0.0 3.0 S 0.00 29.970
12/08/2002 5:00 p 37.1 37.1 37.1 37.2 36.9 80 31.5 0.0 3.0 S 0.00 29.980
12/08/2002 5:30 p 37.1 37.1 37.1 37.3 36.9 78 30.9 1.0 5.0 SSE 0.01 29.997
12/08/2002 6:00 p 36.9 36.9 36.9 37.2 36.7 79 31.0 0.0 4.0 SSE 0.00 30.008
12/08/2002 6:30 p 37.2 37.2 37.2 37.7 36.9 69 28.0 2.0 11.0 SSE 0.00 30.039
12/08/2002 7:00 p 37.2 37.2 37.2 37.7 36.7 68 27.6 2.0 9.0 SSE 0.00 30.056
12/08/2002 7:30 p 36.3 36.3 36.3 36.8 35.6 67 26.4 2.0 11.0 SSE 0.00 30.082
12/08/2002 8:00 p 35.0 35.0 35.0 35.6 34.5 64 24.1 2.0 10.0 SSE 0.01 30.099
12/08/2002 8:30 p 33.9 33.9 33.9 34.6 33.0 67 24.1 1.0 8.0 SSE 0.00 30.117
12/08/2002 9:00 p 32.6 32.6 32.6 33.0 32.2 65 22.2 2.0 10.0 SSE 0.00 30.132
12/08/2002 9:30 p 32.5 32.5 32.5 33.0 32.1 61 20.6 3.0 11.0 SSE 0.00 30.147
12/08/2002 10:00 p 31.7 31.7 31.7 32.1 31.2 54 17.0 2.0 11.0 SSE 0.00 30.175
12/08/2002 10:30 p 31.3 31.3 31.3 31.8 30.9 61 19.4 3.0 9.0 SSE 0.00 30.193
12/08/2002 11:00 p 30.8 30.8 30.8 31.2 30.6 62 19.3 2.0 15.0 S 0.00 30.217
12/08/2002 11:30 p 29.3 29.3 29.3 30.6 28.2 61 17.5 2.0 12.0 S 0.00 30.238
12/09/2002 12:00 a 27.4 27.4 27.4 28.2 27.1 60 15.4 1.0 12.0 SSE 0.00 30.246
12/09/2002 12:30 a 26.9 26.9 26.9 27.3 25.9 57 13.7 2.0 10.0 S 0.00 30.258
12/09/2002 1:00 a 25.3 25.3 25.3 25.9 25.0 54 11.0 2.0 9.0 SSE 0.00 30.280
12/09/2002 1:30 a 24.5 24.5 24.5 25.1 23.6 55 10.7 2.0 11.0 SSE 0.00 30.305
12/09/2002 2:00 a 23.4 23.4 23.4 23.6 23.0 53 8.8 2.0 7.0 SSE 0.00 30.332
12/09/2002 2:30 a 22.5 22.5 22.5 23.0 22.2 49 6.2 2.0 8.0 S 0.00 30.337
12/09/2002 3:00 a 21.8 21.8 21.8 22.2 21.4 50 6.0 2.0 11.0 SSE 0.00 30.344
12/09/2002 3:30 a 20.9 20.9 20.9 21.4 20.6 52 6.1 2.0 7.0 SSE 0.00 30.350
12/09/2002 4:00 a 20.0 20.0 20.0 20.8 19.7 52 5.2 1.0 9.0 SSE 0.00 30.364
12/09/2002 4:30 a 19.3 19.3 19.3 19.9 18.8 51 4.1 1.0 7.0 SSE 0.00 30.381
12/09/2002 5:00 a 18.3 18.3 18.3 18.8 17.6 52 3.6 1.0 5.0 SSE 0.00 30.391
12/09/2002 5:30 a 17.0 17.0 17.0 17.6 16.6 53 2.8 0.0 4.0 SSW 0.00 30.411
12/09/2002 6:00 a 16.4 16.4 16.4 17.0 15.9 57 3.8 0.0 3.0 S 0.00 30.420
12/09/2002 6:30 a 15.5 15.5 15.5 16.0 14.8 61 4.5 0.0 2.0 S 0.00 30.433
12/09/2002 7:00 a 14.0 14.0 14.0 14.9 13.4 65 4.4 0.0 0.0 --- 0.00 30.452
12/09/2002 7:30 a 13.1 13.1 13.1 13.7 12.8 66 3.9 0.0 0.0 --- 0.00 30.464
12/09/2002 8:00 a 16.6 16.6 16.6 20.3 13.7 51 1.6 0.0 3.0 S 0.00 30.480
12/09/2002 8:30 a 26.4 26.4 26.4 30.0 20.4 35 2.5 1.0 4.0 S 0.00 30.489
12/09/2002 9:00 a 26.5 26.5 26.5 29.2 24.4 35 2.6 1.0 6.0 SSE 0.00 30.497
12/09/2002 9:30 a 23.5 23.5 23.5 25.2 22.3 37 1.1 1.0 4.0 SSW 0.00 30.497
12/09/2002 10:00 a 24.0 24.0 24.0 25.8 22.8 38 2.1 1.0 6.0 SSE 0.00 30.508
12/09/2002 10:30 a 25.1 25.1 25.1 29.9 22.8 31 -1.3 1.0 4.0 S 0.00 30.502
12/09/2002 11:00 a 30.3 30.3 30.3 34.2 26.1 25 -1.3 1.0 4.0 SSE 0.00 30.491
12/09/2002 11:30 a 34.6 34.6 34.6 35.3 33.2 24 1.5 0.0 3.0 SE 0.00 30.482
12/09/2002 12:00 p 29.4 29.4 29.4 33.6 26.1 34 4.5 1.0 3.0 N 0.00 30.470
12/09/2002 12:30 p 25.5 25.5 25.5 26.3 24.7 36 2.3 0.0 3.0 NNE 0.00 30.458
12/09/2002 1:00 p 25.1 25.1 25.1 25.2 24.8 36 1.9 0.0 5.0 SSE 0.00 30.439
12/09/2002 1:30 p 24.7 24.7 24.7 25.1 24.5 34 0.3 1.0 3.0 NE 0.00 30.438
12/09/2002 2:00 p 24.8 24.8 24.8 25.0 24.6 35 1.0 0.0 2.0 N 0.00 30.426
12/09/2002 2:30 p 24.8 24.8 24.8 25.0 24.6 38 2.8 0.0 2.0 N 0.00 30.419
12/09/2002 3:00 p 24.8 24.8 24.8 25.1 24.4 38 2.8 0.0 3.0 N 0.00 30.416
12/09/2002 3:30 p 24.2 24.2 24.2 24.5 23.7 41 3.9 0.0 1.0 NE 0.00 30.419
12/09/2002 4:00 p 23.1 23.1 23.1 23.8 22.2 45 4.9 0.0 3.0 SSE 0.00 30.412
12/09/2002 4:30 p 20.6 20.6 20.6 22.2 19.2 51 5.4 0.0 0.0 --- 0.00 30.402
12/09/2002 5:00 p 18.2 18.2 18.2 19.1 17.3 56 5.2 0.0 0.0 --- 0.00 30.398
12/09/2002 5:30 p 17.2 17.2 17.2 17.6 16.6 59 5.3 0.0 0.0 --- 0.00 30.407
12/09/2002 6:00 p 15.9 15.9 15.9 17.2 15.0 65 6.2 0.0 0.0 --- 0.00 30.406
12/09/2002 6:30 p 14.8 14.8 14.8 15.3 14.2 68 6.2 0.0 0.0 --- 0.00 30.406
12/09/2002 7:00 p 13.7 13.7 13.7 14.3 13.3 70 5.7 0.0 0.0 --- 0.00 30.389
12/09/2002 7:30 p 13.3 13.3 13.3 13.6 12.7 77 7.5 0.0 0.0 --- 0.00 30.385
12/09/2002 8:00 p 12.7 12.7 12.7 13.3 12.2 71 5.1 0.0 0.0 --- 0.00 30.368
12/09/2002 8:30 p 12.2 12.2 12.2 12.5 12.0 76 6.1 0.0 0.0 --- 0.00 30.366
12/09/2002 9:00 p 12.6 12.6 12.6 13.2 12.0 80 7.6 0.0 0.0 --- 0.00 30.362
12/09/2002 9:30 p 12.0 12.0 12.0 12.6 11.4 80 7.0 0.0 0.0 --- 0.00 30.354
12/09/2002 10:00 p 11.3 11.3 11.3 11.6 11.0 82 6.9 0.0 0.0 --- 0.00 30.352
12/09/2002 10:30 p 11.7 11.7 11.7 13.2 11.2 81 7.0 0.0 0.0 --- 0.00 30.357
12/09/2002 11:00 p 15.0 15.0 15.0 16.2 13.2 78 9.4 0.0 0.0 --- 0.00 30.353
12/09/2002 11:30 p 16.1 16.1 16.1 16.4 15.9 77 10.2 0.0 0.0 --- 0.00 30.339
12/10/2002 12:00 a 15.5 15.5 15.5 16.5 14.6 79 10.2 0.0 0.0 --- 0.00 30.318
12/10/2002 12:30 a 14.3 14.3 14.3 14.6 14.1 79 9.0 0.0 0.0 --- 0.00 30.301
12/10/2002 1:00 a 13.9 13.9 13.9 14.2 13.6 78 8.3 0.0 0.0 --- 0.00 30.294
12/10/2002 1:30 a 13.5 13.5 13.5 13.7 13.3 81 8.8 0.0 0.0 --- 0.00 30.286
12/10/2002 2:00 a 14.0 14.0 14.0 14.2 13.4 80 9.0 0.0 0.0 --- 0.00 30.277
12/10/2002 2:30 a 14.0 14.0 14.0 14.2 13.7 80 9.0 0.0 0.0 --- 0.00 30.268
12/10/2002 3:00 a 14.1 14.1 14.1 14.2 14.0 80 9.1 0.0 0.0 --- 0.00 30.250
12/10/2002 3:30 a 14.7 14.7 14.7 15.3 14.0 77 8.8 0.0 0.0 --- 0.00 30.241
12/10/2002 4:00 a 15.7 15.7 15.7 16.1 15.3 74 8.9 0.0 1.0 SSE 0.00 30.237
12/10/2002 4:30 a 16.3 16.3 16.3 16.4 16.0 73 9.2 0.0 0.0 --- 0.00 30.230
12/10/2002 5:00 a 16.6 16.6 16.6 17.0 16.3 71 8.9 0.0 0.0 --- 0.00 30.238
12/10/2002 5:30 a 17.7 17.7 17.7 18.1 17.0 67 8.6 0.0 0.0 --- 0.00 30.238
12/10/2002 6:00 a 17.5 17.5 17.5 17.9 17.3 66 8.1 0.0 0.0 --- 0.00 30.237
12/10/2002 6:30 a 17.1 17.1 17.1 17.3 17.1 69 8.7 0.0 0.0 --- 0.00 30.238
12/10/2002 7:00 a 16.9 16.9 16.9 17.2 16.8 69 8.5 0.0 0.0 --- 0.00 30.233
12/10/2002 7:30 a 16.9 16.9 16.9 17.4 16.7 71 9.1 0.0 0.0 --- 0.00 30.229
12/10/2002 8:00 a 18.5 18.5 18.5 19.7 17.4 67 9.4 0.0 0.0 --- 0.00 30.230
12/10/2002 8:30 a 20.9 20.9 20.9 22.0 19.7 61 9.6 0.0 0.0 --- 0.00 30.230
12/10/2002 9:00 a 23.1 23.1 23.1 24.3 22.0 57 10.1 0.0 1.0 --- 0.00 30.229
12/10/2002 9:30 a 25.1 25.1 25.1 26.0 24.3 55 11.2 0.0 0.0 --- 0.00 30.224
12/10/2002 10:00 a 26.9 26.9 26.9 28.2 25.9 51 11.2 0.0 0.0 --- 0.00 30.215
12/10/2002 10:30 a 29.2 29.2 29.2 29.8 28.2 49 12.4 0.0 2.0 SE 0.00 30.215
12/10/2002 11:00 a 30.4 30.4 30.4 31.0 29.6 48 13.1 0.0 2.0 SE 0.00 30.193
12/10/2002 11:30 a 32.1 32.1 32.1 33.3 30.8 45 13.2 0.0 2.0 ENE 0.00 30.180
12/10/2002 12:00 p 33.4 33.4 33.4 33.8 33.2 46 14.9 0.0 3.0 ESE 0.00 30.168
12/10/2002 12:30 p 33.9 33.9 33.9 34.1 33.7 46 15.3 0.0 2.0 SE 0.00 30.161
12/10/2002 1:00 p 33.9 33.9 33.9 34.1 33.7 47 15.8 0.0 3.0 N 0.00 30.153
12/10/2002 1:30 p 34.3 34.3 34.3 34.4 34.1 46 15.7 0.0 2.0 ESE 0.00 30.135
12/10/2002 2:00 p 34.0 34.0 34.0 34.2 33.9 48 16.4 0.0 1.0 ESE 0.00 30.120
12/10/2002 2:30 p 33.7 33.7 33.7 33.9 33.5 49 16.6 0.0 2.0 ESE 0.00 30.107
12/10/2002 3:00 p 33.1 33.1 33.1 33.5 32.6 51 17.0 0.0 1.0 --- 0.00 30.106
12/10/2002 3:30 p 31.9 31.9 31.9 32.6 31.2 54 17.2 0.0 0.0 --- 0.00 30.102
12/10/2002 4:00 p 30.3 30.3 30.3 31.2 29.2 60 18.1 0.0 0.0 --- 0.00 30.102
12/10/2002 4:30 p 28.0 28.0 28.0 29.2 27.2 64 17.4 0.0 0.0 --- 0.00 30.091
12/10/2002 5:00 p 26.6 26.6 26.6 27.3 25.9 69 17.8 0.0 0.0 --- 0.00 30.098
12/10/2002 5:30 p 25.8 25.8 25.8 26.0 25.6 70 17.4 0.0 0.0 --- 0.00 30.103
12/10/2002 6:00 p 25.0 25.0 25.0 25.6 24.6 74 17.9 0.0 0.0 --- 0.00 30.100
12/10/2002 6:30 p 24.4 24.4 24.4 24.8 23.9 74 17.3 0.0 0.0 --- 0.00 30.096
12/10/2002 7:00 p 23.6 23.6 23.6 23.9 23.3 77 17.5 0.0 0.0 --- 0.00 30.083
12/10/2002 7:30 p 22.7 22.7 22.7 23.5 22.3 80 17.5 0.0 0.0 --- 0.00 30.078
12/10/2002 8:00 p 22.5 22.5 22.5 22.8 22.0 78 16.7 0.0 0.0 --- 0.00 30.079
12/10/2002 8:30 p 21.9 21.9 21.9 22.4 21.5 81 17.0 0.0 0.0 --- 0.00 30.062
12/10/2002 9:00 p 20.6 20.6 20.6 21.8 19.9 84 16.5 0.0 0.0 --- 0.00 30.059
12/10/2002 9:30 p 20.0 20.0 20.0 20.4 19.7 86 16.5 0.0 0.0 --- 0.00 30.039
12/10/2002 10:00 p 19.3 19.3 19.3 20.3 18.7 86 15.8 0.0 0.0 --- 0.00 30.032
12/10/2002 10:30 p 18.6 18.6 18.6 19.0 18.0 86 15.1 0.0 0.0 --- 0.00 30.043
12/10/2002 11:00 p 17.5 17.5 17.5 18.0 17.1 88 14.6 0.0 0.0 --- 0.00 30.028
12/10/2002 11:30 p 17.7 17.7 17.7 17.9 17.3 87 14.5 0.0 0.0 --- 0.00 30.034
12/11/2002 12:00 a 17.2 17.2 17.2 17.9 16.6 86 13.7 0.0 0.0 --- 0.00 30.017
12/11/2002 12:30 a 16.7 16.7 16.7 16.9 16.4 87 13.5 0.0 0.0 --- 0.00 30.020
12/11/2002 1:00 a 17.3 17.3 17.3 17.9 16.9 86 13.8 0.0 0.0 --- 0.00 30.004
12/11/2002 1:30 a 19.0 19.0 19.0 19.4 17.9 84 15.0 0.0 0.0 --- 0.00 30.012
12/11/2002 2:00 a 20.0 20.0 20.0 20.9 19.3 84 16.0 0.0 0.0 --- 0.00 30.025
12/11/2002 2:30 a 22.0 22.0 22.0 22.7 20.9 82 17.4 0.0 0.0 --- 0.00 30.014
12/11/2002 3:00 a 23.0 23.0 23.0 23.5 22.7 80 17.8 0.0 0.0 --- 0.00 30.022
12/11/2002 3:30 a 24.0 24.0 24.0 24.3 23.5 79 18.4 0.0 0.0 --- 0.00 30.005
12/11/2002 4:00 a 24.2 24.2 24.2 24.6 23.9 77 18.0 0.0 0.0 --- 0.00 30.005
12/11/2002 4:30 a 25.0 25.0 25.0 26.5 24.2 62 13.8 0.0 0.0 --- 0.00 29.995
12/11/2002 5:00 a 29.0 29.0 29.0 30.5 26.5 52 13.6 0.0 1.0 ESE 0.00 29.991
12/11/2002 5:30 a 31.0 31.0 31.0 31.5 30.4 51 15.0 0.0 1.0 ESE 0.00 29.982
12/11/2002 6:00 a 32.2 32.2 32.2 32.6 31.5 51 16.1 0.0 1.0 ESE 0.00 29.989
12/11/2002 6:30 a 32.9 32.9 32.9 33.3 32.6 50 16.3 0.0 2.0 ESE 0.00 29.993
12/11/2002 7:00 a 33.6 33.6 33.6 33.9 33.2 50 17.0 0.0 4.0 NW 0.00 29.986
12/11/2002 7:30 a 34.1 34.1 34.1 34.2 33.9 47 16.0 1.0 4.0 NNW 0.00 29.979
12/11/2002 8:00 a 34.4 34.4 34.4 34.4 34.2 46 15.8 1.0 5.0 NNW 0.00 29.974
12/11/2002 8:30 a 34.3 34.3 34.3 34.5 34.0 55 19.8 1.0 4.0 WSW 0.00 29.981
12/11/2002 9:00 a 34.2 34.2 34.2 34.5 33.8 69 25.1 0.0 3.0 NNW 0.00 29.996
12/11/2002 9:30 a 33.3 33.3 33.3 33.8 33.0 85 29.3 1.0 4.0 NNW 0.00 29.992
12/11/2002 10:00 a 33.1 33.1 33.1 33.3 33.0 86 29.4 0.0 3.0 NW 0.00 29.978
12/11/2002 10:30 a 32.9 32.9 32.9 33.1 32.3 90 30.3 1.0 4.0 NW 0.00 29.987
12/11/2002 11:00 a 32.0 32.0 32.0 32.3 31.9 94 30.5 0.0 2.0 NW 0.00 29.966
12/11/2002 11:30 a 32.1 32.1 32.1 32.4 32.0 94 30.6 0.0 2.0 W 0.00 29.950
12/11/2002 12:00 p 32.5 32.5 32.5 32.7 32.4 94 31.0 1.0 5.0 NW 0.00 29.928
12/11/2002 12:30 p 33.0 33.0 33.0 33.7 32.5 94 31.5 1.0 3.0 NW 0.00 29.907
12/11/2002 1:00 p 33.5 33.5 33.5 33.7 33.4 94 32.0 1.0 3.0 W 0.14 29.872
12/11/2002 1:30 p 33.5 33.5 33.5 33.6 33.4 94 32.0 1.0 5.0 NW 0.01 29.854
12/11/2002 2:00 p 33.7 33.7 33.7 33.8 33.5 95 32.4 1.0 5.0 NW 0.01 29.819
12/11/2002 2:30 p 33.9 33.9 33.9 33.9 33.8 95 32.6 2.0 5.0 WNW 0.01 29.800
12/11/2002 3:00 p 34.2 34.2 34.2 34.5 33.9 95 32.9 2.0 5.0 WNW 0.00 29.786
12/11/2002 3:30 p 34.7 34.7 34.7 35.0 34.4 95 33.4 2.0 7.0 NW 0.00 29.768
12/11/2002 4:00 p 35.2 35.2 35.2 35.4 35.0 95 33.9 2.0 7.0 NW 0.03 29.766
12/11/2002 4:30 p 35.6 35.6 35.6 36.1 35.3 96 34.6 1.0 4.0 NW 0.07 29.777
12/11/2002 5:00 p 36.4 36.4 36.4 36.6 36.1 96 35.4 1.0 4.0 WSW 0.09 29.762
12/11/2002 5:30 p 36.5 36.5 36.5 36.8 35.7 96 35.5 2.0 7.0 SSE 0.23 29.827
12/11/2002 6:00 p 35.3 35.3 35.3 35.8 35.0 96 34.3 1.0 3.0 S 0.22 29.826
12/11/2002 6:30 p 35.3 35.3 35.3 35.6 35.1 96 34.3 2.0 5.0 WSW 0.12 29.745
12/11/2002 7:00 p 35.8 35.8 35.8 35.9 35.6 96 34.8 2.0 7.0 NW 0.00 29.745
12/11/2002 7:30 p 36.3 36.3 36.3 36.6 35.7 96 35.3 3.0 11.0 NW 0.01 29.737
12/11/2002 8:00 p 36.3 36.3 36.3 36.6 36.2 96 35.3 2.0 8.0 NW 0.02 29.708
12/11/2002 8:30 p 36.7 36.7 36.7 37.0 36.4 97 35.9 2.0 7.0 NW 0.00 29.708
12/11/2002 9:00 p 37.2 37.2 37.2 37.5 36.9 96 36.2 2.0 6.0 NW 0.00 29.705
12/11/2002 9:30 p 37.2 37.2 37.2 37.5 36.9 96 36.2 2.0 6.0 NW 0.00 29.702
12/11/2002 10:00 p 36.7 36.7 36.7 36.9 36.5 97 35.9 1.0 5.0 WNW 0.01 29.699
12/11/2002 10:30 p 36.6 36.6 36.6 36.7 36.5 97 35.8 1.0 4.0 WNW 0.00 29.703
12/11/2002 11:00 p 36.7 36.7 36.7 36.8 36.5 96 35.7 1.0 4.0 WNW 0.00 29.693
12/11/2002 11:30 p 36.8 36.8 36.8 36.9 36.7 97 36.0 1.0 6.0 WSW 0.00 29.699
12/12/2002 12:00 a 36.8 36.8 36.8 36.9 36.7 97 36.0 1.0 4.0 WSW 0.00 29.693
12/12/2002 12:30 a 36.7 36.7 36.7 36.8 36.6 97 35.9 0.0 4.0 SSE 0.00 29.704
12/12/2002 1:00 a 36.8 36.8 36.8 36.9 36.7 97 36.0 1.0 4.0 SSE 0.00 29.717
12/12/2002 1:30 a 36.9 36.9 36.9 37.0 36.8 97 36.1 1.0 5.0 SSE 0.02 29.736
12/12/2002 2:00 a 36.8 36.8 36.8 37.0 36.7 97 36.0 1.0 4.0 SSE 0.00 29.746
12/12/2002 2:30 a 36.7 36.7 36.7 36.7 36.6 97 35.9 1.0 5.0 S 0.00 29.747
12/12/2002 3:00 a 36.5 36.5 36.5 36.6 36.3 97 35.7 1.0 7.0 SSE 0.00 29.766
12/12/2002 3:30 a 36.1 36.1 36.1 36.3 35.9 96 35.1 1.0 3.0 S 0.00 29.759
12/12/2002 4:00 a 35.9 35.9 35.9 36.0 35.8 97 35.1 0.0 4.0 SSE 0.00 29.765
12/12/2002 4:30 a 35.8 35.8 35.8 35.9 35.7 97 35.0 1.0 4.0 SSE 0.00 29.783
12/12/2002 5:00 a 36.0 36.0 36.0 36.1 35.9 97 35.2 1.0 5.0 SSE 0.00 29.781
12/12/2002 5:30 a 35.7 35.7 35.7 35.9 35.5 97 34.9 0.0 3.0 SSE 0.00 29.805
12/12/2002 6:00 a 35.2 35.2 35.2 35.5 35.0 97 34.4 0.0 2.0 SE 0.00 29.827
12/12/2002 6:30 a 35.5 35.5 35.5 35.8 35.1 97 34.7 1.0 3.0 SSE 0.00 29.832
12/12/2002 7:00 a 35.1 35.1 35.1 35.6 34.7 97 34.3 0.0 3.0 SSE 0.00 29.843
12/12/2002 7:30 a 35.8 35.8 35.8 36.2 35.4 97 35.0 1.0 4.0 SSE 0.00 29.853
12/12/2002 8:00 a 36.3 36.3 36.3 36.8 35.9 96 35.3 1.0 4.0 SSE 0.00 29.882
12/12/2002 8:30 a 40.1 40.1 40.1 43.7 36.0 97 39.3 1.0 5.0 SSE 0.00 29.902
12/12/2002 9:00 a 39.6 39.6 39.6 40.5 39.4 97 38.8 1.0 6.0 SSE 0.00 29.921
12/12/2002 9:30 a 40.2 40.2 40.2 41.4 39.4 97 39.4 1.0 5.0 SSE 0.00 29.917
12/12/2002 10:00 a 42.3 42.3 42.3 43.7 41.4 95 41.0 1.0 6.0 SSE 0.00 29.925
12/12/2002 10:30 a 43.7 43.7 43.7 48.3 41.8 93 41.8 1.0 4.0 SSE 0.00 29.930
12/12/2002 11:00 a 48.4 48.4 48.4 50.8 44.9 89 45.3 1.0 4.0 S 0.00 29.933
12/12/2002 11:30 a 49.8 49.8 49.8 50.5 49.2 87 46.1 1.0 4.0 SSE 0.00 29.928
12/12/2002 12:00 p 48.6 48.6 48.6 50.6 47.0 90 45.8 1.0 4.0 SSE 0.00 29.928
12/12/2002 12:30 p 46.1 46.1 46.1 47.6 44.8 89 43.0 1.0 7.0 SSE 0.00 29.930
12/12/2002 1:00 p 45.6 45.6 45.6 46.4 44.8 87 42.0 2.0 6.0 SSE 0.00 29.927
12/12/2002 1:30 p 45.2 45.2 45.2 45.3 44.9 87 41.6 2.0 7.0 S 0.00 29.926
12/12/2002 2:00 p 44.9 44.9 44.9 45.3 44.7 85 40.7 2.0 8.0 SSE 0.00 29.933
12/12/2002 2:30 p 45.4 45.4 45.4 45.4 45.2 83 40.5 2.0 9.0 SSE 0.00 29.938
12/12/2002 3:00 p 45.3 45.3 45.3 45.5 44.9 81 39.8 1.0 7.0 SSE 0.00 29.959
12/12/2002 3:30 p 45.0 45.0 45.0 45.1 44.8 78 38.6 1.0 6.0 SSE 0.00 29.974
12/12/2002 4:00 p 44.1 44.1 44.1 44.9 43.2 77 37.4 1.0 3.0 SSE 0.00 29.981
12/12/2002 4:30 p 41.8 41.8 41.8 43.2 40.8 80 36.1 0.0 2.0 S 0.00 29.994
12/12/2002 5:00 p 40.8 40.8 40.8 41.1 40.5 81 35.4 1.0 5.0 SSE 0.00 29.998
12/12/2002 5:30 p 39.7 39.7 39.7 40.5 39.0 83 35.0 1.0 3.0 SSE 0.00 30.011
12/12/2002 6:00 p 38.6 38.6 38.6 39.1 38.3 84 34.2 0.0 3.0 SSE 0.00 30.018
12/12/2002 6:30 p 37.3 37.3 37.3 38.8 36.0 88 34.1 0.0 3.0 SSE 0.00 30.020
12/12/2002 7:00 p 35.2 35.2 35.2 36.0 34.7 90 32.6 0.0 2.0 SSE 0.00 30.019
12/12/2002 7:30 p 36.4 36.4 36.4 36.9 35.9 87 32.9 0.0 3.0 S 0.00 30.026
12/12/2002 8:00 p 36.1 36.1 36.1 37.0 34.9 91 33.7 0.0 3.0 SSE 0.00 30.020
12/12/2002 8:30 p 34.7 34.7 34.7 35.0 34.2 92 32.6 0.0 1.0 SSE 0.00 30.025
12/12/2002 9:00 p 34.7 34.7 34.7 35.5 34.2 91 32.3 0.0 3.0 SE 0.00 30.028
12/12/2002 9:30 p 34.4 34.4 34.4 34.8 33.9 92 32.3 0.0 2.0 SSE 0.00 30.046
12/12/2002 10:00 p 33.9 33.9 33.9 34.7 33.1 92 31.8 0.0 0.0 --- 0.00 30.061
12/12/2002 10:30 p 32.1 32.1 32.1 33.1 31.5 93 30.3 0.0 1.0 E 0.00 30.073
12/12/2002 11:00 p 31.0 31.0 31.0 31.7 30.5 93 29.2 0.0 0.0 --- 0.00 30.086
12/12/2002 11:30 p 30.6 30.6 30.6 31.1 30.3 94 29.1 0.0 0.0 --- 0.00 30.072
12/13/2002 12:00 a 30.2 30.2 30.2 31.1 29.4 93 28.4 0.0 0.0 --- 0.00 30.055
12/13/2002 12:30 a 29.1 29.1 29.1 29.4 28.6 93 27.3 0.0 0.0 --- 0.00 30.042
12/13/2002 1:00 a 28.5 28.5 28.5 28.6 28.3 93 26.7 0.0 0.0 --- 0.00 30.045
12/13/2002 1:30 a 27.7 27.7 27.7 28.3 27.3 92 25.7 0.0 0.0 --- 0.00 30.039
12/13/2002 2:00 a 27.3 27.3 27.3 27.5 27.1 92 25.3 0.0 0.0 --- 0.00 30.032
12/13/2002 2:30 a 27.1 27.1 27.1 27.2 26.8 92 25.1 0.0 0.0 --- 0.00 30.033
12/13/2002 3:00 a 27.1 27.1 27.1 27.2 27.0 92 25.1 0.0 0.0 --- 0.00 30.032
12/13/2002 3:30 a 27.0 27.0 27.0 27.3 26.8 92 25.0 0.0 0.0 --- 0.00 30.049
12/13/2002 4:00 a 26.5 26.5 26.5 26.9 26.2 92 24.5 0.0 0.0 --- 0.00 30.045
12/13/2002 4:30 a 26.1 26.1 26.1 26.2 25.9 91 23.8 0.0 0.0 --- 0.00 30.046
12/13/2002 5:00 a 25.8 25.8 25.8 26.0 25.6 91 23.5 0.0 0.0 --- 0.00 30.062
12/13/2002 5:30 a 25.5 25.5 25.5 25.7 25.2 91 23.2 0.0 0.0 --- 0.00 30.072
12/13/2002 6:00 a 25.2 25.2 25.2 25.4 25.0 91 22.9 0.0 0.0 --- 0.00 30.088
12/13/2002 6:30 a 25.1 25.1 25.1 25.3 25.0 91 22.8 0.0 0.0 --- 0.00 30.074
12/13/2002 7:00 a 25.6 25.6 25.6 25.9 25.4 92 23.6 0.0 0.0 --- 0.00 30.073
12/13/2002 7:30 a 25.8 25.8 25.8 25.9 25.7 92 23.8 0.0 0.0 --- 0.00 30.077
12/13/2002 8:00 a 27.0 27.0 27.0 27.8 25.9 93 25.2 0.0 0.0 --- 0.00 30.065
12/13/2002 8:30 a 28.5 28.5 28.5 29.4 27.8 93 26.7 0.0 0.0 --- 0.00 30.078
12/13/2002 9:00 a 30.4 30.4 30.4 31.5 29.4 94 28.9 0.0 0.0 --- 0.00 30.052
12/13/2002 9:30 a 32.5 32.5 32.5 33.6 31.5 94 31.0 0.0 0.0 --- 0.00 30.059
12/13/2002 10:00 a 35.4 35.4 35.4 37.0 33.6 94 33.8 0.0 0.0 --- 0.00 30.062
12/13/2002 10:30 a 37.8 37.8 37.8 38.2 37.0 94 36.2 0.0 0.0 --- 0.00 30.058
12/13/2002 11:00 a 38.4 38.4 38.4 38.7 38.2 91 36.0 0.0 2.0 NNE 0.00 30.015
12/13/2002 11:30 a 39.3 39.3 39.3 39.8 38.7 87 35.8 0.0 1.0 NNE 0.00 29.983
12/13/2002 12:00 p 40.3 40.3 40.3 40.6 39.8 87 36.7 0.0 1.0 NNE 0.00 29.968
12/13/2002 12:30 p 40.6 40.6 40.6 40.8 40.4 83 35.9 0.0 4.0 NNE 0.00 29.954
12/13/2002 1:00 p 40.3 40.3 40.3 40.4 40.2 83 35.6 0.0 2.0 N 0.00 29.946
12/13/2002 1:30 p 40.4 40.4 40.4 40.4 40.3 83 35.7 0.0 3.0 N 0.00 29.917
12/13/2002 2:00 p 40.2 40.2 40.2 40.4 40.0 85 36.1 0.0 2.0 NNE 0.00 29.898
12/13/2002 2:30 p 39.9 39.9 39.9 40.0 39.8 86 36.1 0.0 2.0 NNE 0.00 29.880
12/13/2002 3:00 p 39.8 39.8 39.8 39.9 39.7 87 36.3 0.0 1.0 NNE 0.00 29.865
12/13/2002 3:30 p 39.7 39.7 39.7 39.8 39.6 88 36.4 0.0 1.0 --- 0.00 29.852
12/13/2002 4:00 p 39.6 39.6 39.6 39.7 39.5 89 36.6 0.0 0.0 --- 0.00 29.844
12/13/2002 4:30 p 39.5 39.5 39.5 39.6 39.4 90 36.8 0.0 1.0 --- 0.00 29.827
12/13/2002 5:00 p 39.6 39.6 39.6 39.8 39.4 90 36.9 0.0 0.0 --- 0.00 29.802
12/13/2002 5:30 p 39.5 39.5 39.5 39.8 39.3 95 38.2 0.0 1.0 NNE 0.01 29.805
12/13/2002 6:00 p 39.1 39.1 39.1 39.3 38.8 95 37.8 0.0 1.0 --- 0.04 29.793
12/13/2002 6:30 p 38.7 38.7 38.7 38.9 38.6 96 37.7 0.0 1.0 NNE 0.06 29.778
12/13/2002 7:00 p 38.7 38.7 38.7 38.7 38.6 96 37.7 0.0 2.0 NNE 0.04 29.753
12/13/2002 7:30 p 38.6 38.6 38.6 38.7 38.5 96 37.6 0.0 2.0 NNE 0.02 29.753
12/13/2002 8:00 p 38.6 38.6 38.6 38.7 38.6 96 37.6 0.0 2.0 SSW 0.09 29.735
12/13/2002 8:30 p 38.8 38.8 38.8 38.9 38.7 97 38.0 0.0 3.0 SW 0.03 29.688
12/13/2002 9:00 p 39.0 39.0 39.0 39.1 38.9 97 38.2 1.0 3.0 NW 0.00 29.657
12/13/2002 9:30 p 39.1 39.1 39.1 39.2 39.0 96 38.1 1.0 4.0 NW 0.05 29.632
12/13/2002 10:00 p 39.5 39.5 39.5 39.8 39.2 97 38.7 1.0 4.0 NW 0.02 29.597
12/13/2002 10:30 p 40.2 40.2 40.2 40.6 39.8 97 39.4 2.0 5.0 NW 0.02 29.560
12/13/2002 11:00 p 41.0 41.0 41.0 41.8 40.5 97 40.2 1.0 4.0 NW 0.01 29.525
12/13/2002 11:30 p 42.3 42.3 42.3 42.8 41.8 97 41.5 1.0 5.0 NW 0.01 29.488
12/14/2002 12:00 a 43.3 43.3 43.3 43.7 42.8 97 42.5 2.0 6.0 NW 0.02 29.453
12/14/2002 12:30 a 43.9 43.9 43.9 44.1 43.7 97 43.1 2.0 6.0 NW 0.02 29.435
12/14/2002 1:00 a 44.0 44.0 44.0 44.2 43.9 97 43.2 1.0 5.0 NW 0.01 29.399
12/14/2002 1:30 a 44.2 44.2 44.2 44.2 44.1 98 43.7 1.0 5.0 NNW 0.01 29.377
12/14/2002 2:00 a 44.1 44.1 44.1 44.2 44.1 97 43.3 1.0 5.0 NW 0.02 29.356
12/14/2002 2:30 a 43.9 43.9 43.9 44.2 43.6 97 43.1 2.0 5.0 NW 0.01 29.335
12/14/2002 3:00 a 43.5 43.5 43.5 43.7 43.5 97 42.7 1.0 4.0 NW 0.00 29.316
12/14/2002 3:30 a 43.5 43.5 43.5 43.6 43.4 97 42.7 0.0 2.0 W 0.00 29.311
12/14/2002 4:00 a 43.6 43.6 43.6 43.7 43.4 97 42.8 1.0 5.0 NW 0.01 29.276
12/14/2002 4:30 a 43.7 43.7 43.7 43.8 43.7 97 42.9 2.0 8.0 NW 0.00 29.209
12/14/2002 5:00 a 44.0 44.0 44.0 44.3 43.7 98 43.5 2.0 7.0 NW 0.00 29.217
12/14/2002 5:30 a 44.4 44.4 44.4 44.5 44.3 98 43.9 1.0 5.0 NW 0.00 29.225
12/14/2002 6:00 a 44.6 44.6 44.6 44.7 44.5 97 43.8 1.0 4.0 NNW 0.00 29.199
12/14/2002 6:30 a 44.8 44.8 44.8 44.8 44.7 97 44.0 2.0 5.0 NNW 0.00 29.162
12/14/2002 7:00 a 44.9 44.9 44.9 45.0 44.8 98 44.4 1.0 5.0 NW 0.00 29.184
12/14/2002 7:30 a 44.9 44.9 44.9 45.0 44.8 97 44.1 0.0 3.0 NNW 0.01 29.169
12/14/2002 8:00 a 44.8 44.8 44.8 44.9 44.6 97 44.0 0.0 3.0 NW 0.00 29.152
12/14/2002 8:30 a 44.5 44.5 44.5 44.7 44.5 97 43.7 0.0 3.0 NNW 0.01 29.164
12/14/2002 9:00 a 44.5 44.5 44.5 44.7 44.3 97 43.7 0.0 1.0 NNW 0.01 29.156
12/14/2002 9:30 a 44.9 44.9 44.9 45.1 44.7 98 44.4 0.0 1.0 NNW 0.02 29.159
12/14/2002 10:00 a 44.8 44.8 44.8 44.9 44.8 97 44.0 0.0 1.0 NNW 0.02 29.154
12/14/2002 10:30 a 44.8 44.8 44.8 45.0 44.6 98 44.3 0.0 2.0 NNW 0.00 29.156
12/14/2002 11:00 a 44.3 44.3 44.3 44.6 43.9 98 43.8 0.0 2.0 S 0.02 29.144
12/14/2002 11:30 a 43.9 43.9 43.9 43.9 43.7 97 43.1 0.0 2.0 S 0.02 29.143
12/14/2002 12:00 p 43.6 43.6 43.6 43.9 43.1 98 43.1 0.0 3.0 S 0.02 29.140
12/14/2002 12:30 p 42.5 42.5 42.5 43.1 42.1 98 42.0 0.0 3.0 S 0.00 29.133
12/14/2002 1:00 p 42.1 42.1 42.1 42.2 42.1 98 41.6 1.0 4.0 S 0.00 29.131
12/14/2002 1:30 p 41.9 41.9 41.9 42.2 41.4 97 41.1 1.0 4.0 S 0.00 29.130
12/14/2002 2:00 p 41.1 41.1 41.1 41.4 40.8 97 40.3 0.0 3.0 SSE 0.00 29.143
12/14/2002 2:30 p 40.6 40.6 40.6 40.9 40.2 97 39.8 0.0 4.0 SW 0.00 29.146
12/14/2002 3:00 p 40.1 40.1 40.1 40.2 40.0 97 39.3 1.0 4.0 S 0.00 29.148
12/14/2002 3:30 p 40.0 40.0 40.0 40.2 39.9 97 39.2 1.0 4.0 S 0.00 29.163
12/14/2002 4:00 p 39.9 39.9 39.9 40.0 39.9 97 39.1 0.0 2.0 SW 0.00 29.175
12/14/2002 4:30 p 39.9 39.9 39.9 40.0 39.8 97 39.1 1.0 5.0 SSE 0.00 29.185
12/14/2002 5:00 p 39.7 39.7 39.7 39.8 39.6 97 38.9 0.0 3.0 S 0.00 29.202
12/14/2002 5:30 p 39.5 39.5 39.5 39.6 39.3 97 38.7 0.0 4.0 SSE 0.00 29.215
12/14/2002 6:00 p 39.8 39.8 39.8 40.1 39.3 97 39.0 1.0 5.0 SSE 0.00 29.225
12/14/2002 6:30 p 40.1 40.1 40.1 40.3 39.9 97 39.3 1.0 4.0 SSE 0.00 29.248
12/14/2002 7:00 p 39.7 39.7 39.7 39.9 39.5 97 38.9 1.0 4.0 SSE 0.00 29.265
12/14/2002 7:30 p 40.0 40.0 40.0 40.1 39.7 97 39.2 0.0 3.0 S 0.00 29.292
12/14/2002 8:00 p 39.8 39.8 39.8 40.1 39.6 97 39.0 1.0 6.0 SSE 0.00 29.304
12/14/2002 8:30 p 39.1 39.1 39.1 39.6 38.8 95 37.8 1.0 6.0 SSE 0.00 29.321
12/14/2002 9:00 p 39.1 39.1 39.1 39.4 38.9 95 37.8 3.0 12.0 SSE 0.00 29.330
12/14/2002 9:30 p 39.0 39.0 39.0 39.3 38.8 94 37.4 3.0 14.0 SSE 0.00 29.348
12/14/2002 10:00 p 39.2 39.2 39.2 39.6 39.0 94 37.6 2.0 10.0 SSE 0.00 29.377
12/14/2002 10:30 p 39.7 39.7 39.7 39.9 39.6 94 38.1 1.0 7.0 SSE 0.00 29.377
12/14/2002 11:00 p 39.6 39.6 39.6 39.8 39.5 93 37.7 2.0 8.0 SSE 0.00 29.394
12/14/2002 11:30 p 39.7 39.7 39.7 40.4 39.4 91 37.3 3.0 12.0 SSE 0.00 29.413
12/15/2002 12:00 a 40.6 40.6 40.6 40.9 40.4 91 38.2 3.0 11.0 SSE 0.00 29.420
12/15/2002 12:30 a 40.6 40.6 40.6 40.9 40.2 89 37.6 2.0 11.0 SSE 0.00 29.446
12/15/2002 1:00 a 40.0 40.0 40.0 40.2 39.8 87 36.5 2.0 7.0 SSE 0.00 29.455
12/15/2002 1:30 a 39.6 39.6 39.6 39.8 39.4 87 36.1 2.0 7.0 SSE 0.00 29.468
12/15/2002 2:00 a 39.8 39.8 39.8 40.2 39.3 85 35.7 2.0 9.0 SSE 0.00 29.483
12/15/2002 2:30 a 40.5 40.5 40.5 41.0 40.1 83 35.8 1.0 9.0 SSE 0.00 29.500
12/15/2002 3:00 a 41.4 41.4 41.4 41.6 41.0 79 35.4 1.0 5.0 SSE 0.00 29.522
12/15/2002 3:30 a 41.8 41.8 41.8 42.2 41.5 76 34.8 2.0 12.0 SSE 0.00 29.526
12/15/2002 4:00 a 42.0 42.0 42.0 42.1 41.8 73 34.0 2.0 10.0 SSE 0.00 29.537
12/15/2002 4:30 a 41.9 41.9 41.9 42.0 41.8 71 33.2 4.0 11.0 SSE 0.00 29.555
12/15/2002 5:00 a 41.6 41.6 41.6 41.9 41.3 69 32.2 4.0 13.0 SSE 0.00 29.566
12/15/2002 5:30 a 41.2 41.2 41.2 41.4 41.0 70 32.2 2.0 9.0 SSE 0.00 29.579
12/15/2002 6:00 a 41.0 41.0 41.0 41.1 40.7 68 31.3 3.0 8.0 SSE 0.00 29.585
12/15/2002 6:30 a 40.6 40.6 40.6 40.8 40.4 69 31.2 3.0 9.0 SSE 0.00 29.588
12/15/2002 7:00 a 40.5 40.5 40.5 40.6 40.3 67 30.4 3.0 11.0 SSE 0.00 29.595
12/15/2002 7:30 a 40.4 40.4 40.4 40.7 40.0 65 29.6 3.0 15.0 SSE 0.00 29.601
12/15/2002 8:00 a 40.5 40.5 40.5 41.6 40.1 63 28.9 2.0 14.0 SSE 0.00 29.615
12/15/2002 8:30 a 42.7 42.7 42.7 46.6 40.9 54 27.2 1.0 8.0 SSE 0.00 29.618
12/15/2002 9:00 a 45.9 45.9 45.9 47.2 44.8 54 30.2 2.0 8.0 SSE 0.00 29.621
12/15/2002 9:30 a 44.1 44.1 44.1 45.2 43.2 55 29.0 4.0 12.0 SSE 0.00 29.633
12/15/2002 10:00 a 44.7 44.7 44.7 46.0 43.7 52 28.2 3.0 10.0 S 0.00 29.641
12/15/2002 10:30 a 45.1 45.1 45.1 47.3 44.2 49 27.1 2.0 11.0 SSE 0.00 29.641
12/15/2002 11:00 a 47.4 47.4 47.4 49.0 46.1 51 30.2 2.0 6.0 SSE 0.00 29.630
12/15/2002 11:30 a 46.3 46.3 46.3 46.9 45.9 52 29.7 1.0 7.0 SSE 0.00 29.618
12/15/2002 12:00 p 46.9 46.9 46.9 47.7 46.3 49 28.8 1.0 7.0 SSE 0.00 29.611
12/15/2002 12:30 p 48.3 48.3 48.3 49.1 47.6 49 30.0 0.0 4.0 SSE 0.00 29.602
12/15/2002 1:00 p 48.4 48.4 48.4 49.2 47.8 51 31.1 1.0 4.0 SSE 0.00 29.597
12/15/2002 1:30 p 47.2 47.2 47.2 47.9 46.5 53 31.0 1.0 5.0 S 0.00 29.593
12/15/2002 2:00 p 46.1 46.1 46.1 46.5 45.8 52 29.5 1.0 5.0 SSE 0.00 29.592
12/15/2002 2:30 p 45.4 45.4 45.4 45.8 45.0 53 29.3 1.0 6.0 SSE 0.00 29.594
12/15/2002 3:00 p 44.5 44.5 44.5 45.0 44.2 55 29.4 1.0 7.0 SSE 0.00 29.596
12/15/2002 3:30 p 43.8 43.8 43.8 44.4 43.0 59 30.4 2.0 7.0 SSE 0.00 29.604
12/15/2002 4:00 p 42.1 42.1 42.1 43.0 41.0 63 30.4 0.0 4.0 S 0.00 29.610
12/15/2002 4:30 p 40.5 40.5 40.5 41.0 39.9 65 29.7 0.0 6.0 SSE 0.00 29.613
12/15/2002 5:00 p 38.4 38.4 38.4 39.9 37.6 70 29.5 0.0 1.0 SSE 0.00 29.615
12/15/2002 5:30 p 37.0 37.0 37.0 37.6 36.5 72 28.8 0.0 0.0 --- 0.00 29.609
12/15/2002 6:00 p 36.0 36.0 36.0 36.5 35.7 76 29.2 0.0 0.0 --- 0.00 29.614
12/15/2002 6:30 p 35.6 35.6 35.6 36.1 35.1 77 29.1 0.0 0.0 --- 0.00 29.615
12/15/2002 7:00 p 36.4 36.4 36.4 36.9 36.1 75 29.2 0.0 0.0 --- 0.00 29.605
12/15/2002 7:30 p 37.3 37.3 37.3 37.7 36.9 76 30.4 0.0 0.0 --- 0.00 29.598
12/15/2002 8:00 p 37.7 37.7 37.7 37.8 37.6 77 31.2 0.0 0.0 --- 0.00 29.596
12/15/2002 8:30 p 38.2 38.2 38.2 38.7 37.8 72 30.0 0.0 0.0 --- 0.00 29.590
12/15/2002 9:00 p 38.8 38.8 38.8 38.9 38.7 75 31.6 0.0 0.0 --- 0.00 29.570
12/15/2002 9:30 p 38.7 38.7 38.7 38.9 38.6 75 31.5 0.0 0.0 --- 0.00 29.564
12/15/2002 10:00 p 38.8 38.8 38.8 38.9 38.7 74 31.2 0.0 0.0 --- 0.00 29.550
12/15/2002 10:30 p 38.8 38.8 38.8 38.9 38.7 77 32.2 0.0 0.0 --- 0.00 29.543
12/15/2002 11:00 p 38.6 38.6 38.6 38.8 38.5 75 31.4 0.0 0.0 --- 0.00 29.531
12/15/2002 11:30 p 38.9 38.9 38.9 39.0 38.8 76 32.0 0.0 0.0 --- 0.00 29.519
12/16/2002 12:00 a 39.0 39.0 39.0 39.0 38.9 76 32.1 0.0 0.0 --- 0.00 29.505
12/16/2002 12:30 a 39.1 39.1 39.1 39.1 38.9 76 32.2 0.0 0.0 --- 0.00 29.494
12/16/2002 1:00 a 39.3 39.3 39.3 39.6 39.1 74 31.7 0.0 0.0 --- 0.00 29.480
12/16/2002 1:30 a 39.6 39.6 39.6 39.8 39.3 72 31.3 0.0 0.0 --- 0.00 29.473
12/16/2002 2:00 a 38.9 38.9 38.9 39.3 38.2 74 31.3 0.0 0.0 --- 0.00 29.469
12/16/2002 2:30 a 38.3 38.3 38.3 38.4 38.1 77 31.7 0.0 0.0 --- 0.00 29.463
12/16/2002 3:00 a 38.4 38.4 38.4 38.4 38.3 76 31.5 0.0 0.0 --- 0.00 29.453
12/16/2002 3:30 a 38.2 38.2 38.2 38.4 37.7 78 32.0 0.0 0.0 --- 0.00 29.442
12/16/2002 4:00 a 37.8 37.8 37.8 38.0 37.6 76 30.9 0.0 0.0 --- 0.00 29.431
12/16/2002 4:30 a 38.0 38.0 38.0 38.2 37.8 80 32.4 0.0 0.0 --- 0.00 29.429
12/16/2002 5:00 a 37.5 37.5 37.5 37.8 37.2 89 34.6 0.0 0.0 --- 0.00 29.424
12/16/2002 5:30 a 38.0 38.0 38.0 38.6 37.3 91 35.6 0.0 2.0 SSE 0.00 29.426
12/16/2002 6:00 a 38.5 38.5 38.5 38.6 38.4 90 35.8 0.0 3.0 SSE 0.00 29.436
12/16/2002 6:30 a 38.8 38.8 38.8 38.9 38.6 88 35.6 0.0 5.0 NNW 0.00 29.435
12/16/2002 7:00 a 37.8 37.8 37.8 38.8 37.0 89 34.9 0.0 2.0 S 0.00 29.438
12/16/2002 7:30 a 36.4 36.4 36.4 37.0 36.0 90 33.8 0.0 4.0 S 0.00 29.444
12/16/2002 8:00 a 37.9 37.9 37.9 39.0 36.8 86 34.1 3.0 16.0 SSE 0.01 29.440
12/16/2002 8:30 a 43.0 43.0 43.0 46.1 39.0 77 36.3 0.0 3.0 SSW 0.00 29.459
12/16/2002 9:00 a 41.8 41.8 41.8 46.0 39.9 80 36.1 1.0 4.0 SSE 0.00 29.473
12/16/2002 9:30 a 40.7 40.7 40.7 41.5 40.2 77 34.1 1.0 11.0 SSE 0.00 29.487
12/16/2002 10:00 a 40.8 40.8 40.8 41.5 40.4 74 33.2 2.0 11.0 SSE 0.00 29.496
12/16/2002 10:30 a 41.4 41.4 41.4 41.6 40.9 74 33.7 2.0 8.0 SSE 0.00 29.503
12/16/2002 11:00 a 40.6 40.6 40.6 40.9 40.3 69 31.2 2.0 16.0 SSE 0.00 29.511
12/16/2002 11:30 a 41.0 41.0 41.0 42.7 40.2 57 26.9 3.0 14.0 SSE 0.00 29.532
12/16/2002 12:00 p 39.8 39.8 39.8 40.5 39.3 55 25.0 4.0 18.0 SSE 0.00 29.541
12/16/2002 12:30 p 39.0 39.0 36.1 39.5 38.4 52 22.9 5.0 24.0 S 0.00 29.555
12/16/2002 1:00 p 39.4 39.4 39.4 39.9 38.9 50 22.3 4.0 14.0 SSE 0.00 29.587
12/16/2002 1:30 p 38.9 38.9 38.9 39.2 38.7 49 21.4 3.0 14.0 SSE 0.00 29.605
12/16/2002 2:00 p 38.6 38.6 38.6 39.1 37.6 50 21.6 3.0 13.0 SW 0.00 29.632
12/16/2002 2:30 p 36.9 36.9 36.9 37.6 36.5 51 20.5 4.0 17.0 S 0.00 29.662
12/16/2002 3:00 p 36.4 36.4 36.4 36.7 35.8 51 20.0 3.0 13.0 SW 0.00 29.693
12/16/2002 3:30 p 35.0 35.0 35.0 35.8 34.7 52 19.2 4.0 14.0 S 0.00 29.723
12/16/2002 4:00 p 34.1 34.1 34.1 34.7 33.6 55 19.6 4.0 13.0 S 0.00 29.738
12/16/2002 4:30 p 33.0 33.0 33.0 33.7 32.4 57 19.4 3.0 14.0 S 0.00 29.753
12/16/2002 5:00 p 31.9 31.9 31.9 32.4 31.6 58 18.8 2.0 12.0 SSE 0.00 29.776
12/16/2002 5:30 p 31.1 31.1 31.1 31.6 30.5 60 18.9 2.0 11.0 SSE 0.00 29.804
12/16/2002 6:00 p 30.2 30.2 30.2 30.5 29.8 59 17.6 2.0 10.0 SSE 0.00 29.829
12/16/2002 6:30 p 29.6 29.6 29.6 30.0 29.3 60 17.4 2.0 8.0 S 0.00 29.847
12/16/2002 7:00 p 29.3 29.3 29.3 29.4 29.1 59 16.8 3.0 11.0 S 0.00 29.858
12/16/2002 7:30 p 28.8 28.8 28.8 29.2 28.3 61 17.1 2.0 9.0 SSE 0.00 29.877
12/16/2002 8:00 p 28.2 28.2 28.2 28.3 28.1 59 15.7 3.0 9.0 SSE 0.00 29.888
12/16/2002 8:30 p 27.7 27.7 27.7 28.2 27.2 62 16.4 2.0 9.0 SSE 0.00 29.909
12/16/2002 9:00 p 27.0 27.0 27.0 27.2 26.7 62 15.7 2.0 7.0 S 0.00 29.909
12/16/2002 9:30 p 26.3 26.3 26.3 26.7 25.9 62 15.1 2.0 7.0 SSE 0.00 29.934
12/16/2002 10:00 p 25.5 25.5 25.5 26.0 25.2 62 14.3 1.0 9.0 SSE 0.00 29.942
12/16/2002 10:30 p 25.2 25.2 25.2 25.4 25.0 62 14.0 1.0 9.0 SSE 0.00 29.957
12/16/2002 11:00 p 24.8 24.8 24.8 25.1 24.4 62 13.6 1.0 7.0 SSE 0.00 29.968
12/16/2002 11:30 p 24.8 24.8 24.8 25.0 24.6 61 13.3 2.0 10.0 SSE 0.00 29.971
12/17/2002 12:00 a 24.6 24.6 24.6 24.8 24.3 61 13.1 1.0 7.0 SSW 0.00 29.971
12/17/2002 12:30 a 23.9 23.9 23.9 24.3 23.5 63 13.2 1.0 3.0 S 0.00 29.972
12/17/2002 1:00 a 23.5 23.5 23.5 23.7 23.3 64 13.1 1.0 4.0 SSE 0.00 29.983
12/17/2002 1:30 a 23.2 23.2 23.2 23.6 22.9 65 13.2 0.0 4.0 S 0.00 29.989
12/17/2002 2:00 a 22.5 22.5 22.5 22.9 21.9 71 14.5 0.0 3.0 S 0.00 30.019
12/17/2002 2:30 a 21.7 21.7 21.7 22.0 21.4 72 14.1 0.0 2.0 S 0.00 30.035
12/17/2002 3:00 a 21.5 21.5 21.5 21.8 21.1 72 13.9 0.0 2.0 S 0.00 30.046
12/17/2002 3:30 a 21.1 21.1 21.1 21.4 21.0 70 12.9 0.0 1.0 S 0.00 30.052
12/17/2002 4:00 a 21.6 21.6 21.6 21.8 21.3 68 12.7 1.0 4.0 S 0.00 30.056
12/17/2002 4:30 a 21.7 21.7 21.7 21.8 21.4 68 12.8 0.0 4.0 S 0.00 30.056
12/17/2002 5:00 a 21.3 21.3 21.3 21.5 21.0 68 12.4 0.0 3.0 S 0.00 30.075
12/17/2002 5:30 a 20.8 20.8 20.8 21.2 20.2 70 12.6 0.0 3.0 SSE 0.00 30.084
12/17/2002 6:00 a 19.9 19.9 19.9 20.4 19.5 71 12.0 0.0 1.0 SSE 0.00 30.094
12/17/2002 6:30 a 18.7 18.7 18.7 19.5 17.9 79 13.3 0.0 0.0 --- 0.00 30.098
12/17/2002 7:00 a 17.5 17.5 17.5 17.9 17.3 80 12.4 0.0 0.0 --- 0.00 30.110
12/17/2002 7:30 a 17.0 17.0 17.0 17.4 16.7 82 12.5 0.0 0.0 --- 0.00 30.132
12/17/2002 8:00 a 18.3 18.3 18.3 21.2 17.1 77 12.3 0.0 0.0 --- 0.00 30.142
12/17/2002 8:30 a 27.6 27.6 27.6 32.2 21.2 47 10.0 0.0 4.0 SSW 0.00 30.152
12/17/2002 9:00 a 31.5 31.5 31.5 33.5 28.8 48 14.1 1.0 5.0 S 0.00 30.169
12/17/2002 9:30 a 28.4 28.4 28.4 29.1 27.5 52 13.0 1.0 5.0 S 0.00 30.178
12/17/2002 10:00 a 28.5 28.5 28.5 30.2 27.5 47 10.8 1.0 7.0 SSE 0.00 30.177
12/17/2002 10:30 a 29.8 29.8 29.8 34.2 28.3 38 7.3 2.0 5.0 SSE 0.00 30.190
12/17/2002 11:00 a 34.9 34.9 34.9 39.5 31.3 32 8.0 1.0 6.0 SSW 0.00 30.177
12/17/2002 11:30 a 38.9 38.9 38.9 39.8 38.4 30 10.1 2.0 6.0 SSE 0.00 30.162
12/17/2002 12:00 p 35.3 35.3 35.3 38.9 31.9 38 12.2 2.0 8.0 S 0.00 30.148
12/17/2002 12:30 p 31.9 31.9 31.9 32.0 31.8 38 9.2 1.0 6.0 SSE 0.00 30.143
12/17/2002 1:00 p 32.0 32.0 32.0 32.3 31.7 35 7.5 1.0 5.0 S 0.00 30.146
12/17/2002 1:30 p 32.3 32.3 32.3 32.6 32.1 34 7.1 1.0 7.0 SSE 0.00 30.154
12/17/2002 2:00 p 32.7 32.7 32.7 32.8 32.6 34 7.4 1.0 5.0 SSE 0.00 30.150
12/17/2002 2:30 p 32.8 32.8 32.8 33.0 32.5 33 6.9 1.0 8.0 SSE 0.00 30.154
12/17/2002 3:00 p 32.7 32.7 32.7 32.9 32.6 33 6.8 0.0 3.0 SSW 0.00 30.161
12/17/2002 3:30 p 32.7 32.7 32.7 33.1 32.2 33 6.8 1.0 5.0 SSE 0.00 30.179
12/17/2002 4:00 p 31.6 31.6 31.6 32.3 30.9 35 7.1 0.0 3.0 SSE 0.00 30.192
12/17/2002 4:30 p 29.7 29.7 29.7 30.9 28.7 38 7.2 0.0 1.0 SSW 0.00 30.196
12/17/2002 5:00 p 27.8 27.8 27.8 28.9 27.0 39 6.1 0.0 1.0 --- 0.00 30.206
12/17/2002 5:30 p 26.9 26.9 26.9 27.3 26.5 41 6.4 0.0 0.0 --- 0.00 30.211
12/17/2002 6:00 p 27.1 27.1 27.1 27.8 26.6 32 1.2 0.0 3.0 NW 0.00 30.220
12/17/2002 6:30 p 27.3 27.3 27.3 27.6 26.8 32 1.3 0.0 2.0 NW 0.00 30.236
12/17/2002 7:00 p 26.4 26.4 26.4 26.8 25.7 34 1.8 0.0 2.0 W 0.00 30.246
12/17/2002 7:30 p 24.7 24.7 24.7 25.7 24.1 40 3.8 0.0 0.0 --- 0.00 30.256
12/17/2002 8:00 p 24.0 24.0 24.0 24.3 23.7 40 3.2 0.0 0.0 --- 0.00 30.266
12/17/2002 8:30 p 23.7 23.7 23.7 24.0 23.3 40 2.9 0.0 1.0 --- 0.00 30.274
12/17/2002 9:00 p 23.5 23.5 23.5 23.8 23.2 44 4.8 0.0 2.0 W 0.00 30.281
12/17/2002 9:30 p 22.5 22.5 22.5 23.9 21.1 53 8.0 0.0 0.0 --- 0.00 30.287
12/17/2002 10:00 p 20.7 20.7 20.7 21.1 20.5 58 8.3 0.0 0.0 --- 0.00 30.297
12/17/2002 10:30 p 20.2 20.2 20.2 20.9 19.3 62 9.3 0.0 0.0 --- 0.00 30.305
12/17/2002 11:00 p 19.7 19.7 19.7 20.6 18.8 53 5.4 0.0 0.0 --- 0.00 30.305
12/17/2002 11:30 p 20.9 20.9 20.9 21.3 20.4 56 7.7 0.0 3.0 SSW 0.00 30.303
12/18/2002 12:00 a 19.7 19.7 19.7 20.5 19.3 62 8.8 0.0 0.0 --- 0.00 30.305
12/18/2002 12:30 a 18.3 18.3 18.3 19.5 17.8 66 8.9 0.0 0.0 --- 0.00 30.304
12/18/2002 1:00 a 17.5 17.5 17.5 18.1 17.1 69 9.1 0.0 0.0 --- 0.00 30.305
12/18/2002 1:30 a 17.6 17.6 17.6 18.6 16.9 64 7.5 0.0 0.0 --- 0.00 30.319
12/18/2002 2:00 a 19.5 19.5 19.5 20.8 18.5 59 7.5 0.0 2.0 S 0.00 30.331
12/18/2002 2:30 a 20.8 20.8 20.8 21.0 20.5 60 9.1 0.0 3.0 SSW 0.00 30.336
12/18/2002 3:00 a 20.1 20.1 20.1 20.5 19.9 61 8.8 0.0 2.0 SW 0.00 30.329
12/18/2002 3:30 a 19.3 19.3 19.3 19.9 18.7 65 9.5 0.0 2.0 SW 0.00 30.336
12/18/2002 4:00 a 18.3 18.3 18.3 18.7 17.9 65 8.5 0.0 0.0 --- 0.00 30.335
12/18/2002 4:30 a 17.2 17.2 17.2 17.9 16.6 71 9.4 0.0 0.0 --- 0.00 30.347
12/18/2002 5:00 a 16.0 16.0 16.0 16.6 15.6 73 8.9 0.0 2.0 SW 0.00 30.347
12/18/2002 5:30 a 16.4 16.4 16.4 16.8 16.0 73 9.3 0.0 0.0 --- 0.00 30.356
12/18/2002 6:00 a 15.2 15.2 15.2 16.0 14.5 77 9.3 0.0 0.0 --- 0.00 30.361
12/18/2002 6:30 a 14.5 14.5 14.5 14.8 14.1 77 8.6 0.0 0.0 --- 0.00 30.369
12/18/2002 7:00 a 14.5 14.5 14.5 14.9 14.1 77 8.6 0.0 0.0 --- 0.00 30.371
12/18/2002 7:30 a 14.2 14.2 14.2 14.3 14.0 79 8.9 0.0 0.0 --- 0.00 30.369
12/18/2002 8:00 a 16.2 16.2 16.2 19.2 14.2 70 8.2 0.0 0.0 --- 0.00 30.377
12/18/2002 8:30 a 26.0 26.0 26.0 31.5 19.2 46 8.1 0.0 2.0 SW 0.00 30.386
12/18/2002 9:00 a 32.0 32.0 32.0 33.5 29.8 41 11.0 0.0 3.0 S 0.00 30.393
12/18/2002 9:30 a 29.2 29.2 29.2 30.1 27.9 43 9.5 1.0 4.0 SSE 0.00 30.403
12/18/2002 10:00 a 28.7 28.7 28.7 30.3 27.9 40 7.4 1.0 4.0 SSE 0.00 30.411
12/18/2002 10:30 a 29.9 29.9 29.9 35.6 28.4 33 4.3 0.0 4.0 SSE 0.00 30.392
12/18/2002 11:00 a 36